Wetterdaten: Mittwoch, 03.07.2019
Datum Zeit Temp. Aussen Temp. o. S. +5cm Feuchte Auss Luftdruck Regen Sonnenschein Regendauer Solar Windben Empfang
03.07.2019 00:00 16,9 C 15,6 C 15,6 C 65 % 1023,0 hPa 0,0 l/m 0 min 0 min 0 W/m 12,9 km/h (3 Bft) 95,74 %
03.07.2019 00:02 16,9 C 15,6 C 15,6 C 65 % 1023,1 hPa 0,0 l/m 0 min 0 min 0 W/m 6,4 km/h (2 Bft) 97,37 %
03.07.2019 00:04 16,9 C 15,6 C 15,6 C 65 % 1023,1 hPa 0,0 l/m 0 min 0 min 0 W/m 6,4 km/h (2 Bft) 97,87 %
03.07.2019 00:08 16,9 C 15,6 C 15,6 C 66 % 1023,1 hPa 0,0 l/m 0 min 0 min 0 W/m 6,4 km/h (2 Bft) 96,81 %
03.07.2019 00:10 16,8 C 15,6 C 15,6 C 66 % 1023,1 hPa 0,0 l/m 0 min 0 min 0 W/m 9,7 km/h (2 Bft) 97,83 %
03.07.2019 00:12 16,8 C 15,6 C 15,6 C 66 % 1023,1 hPa 0,0 l/m 0 min 0 min 0 W/m 6,4 km/h (2 Bft) 100,00 %
03.07.2019 00:14 16,8 C 15,6 C 15,0 C 66 % 1023,1 hPa 0,0 l/m 0 min 0 min 0 W/m 3,2 km/h (1 Bft) 100,00 %
03.07.2019 00:16 16,8 C 15,6 C 15,0 C 66 % 1023,1 hPa 0,0 l/m 0 min 0 min 0 W/m 6,4 km/h (2 Bft) 100,00 %
03.07.2019 00:18 16,7 C 15,6 C 15,0 C 66 % 1023,1 hPa 0,0 l/m 0 min 0 min 0 W/m 6,4 km/h (2 Bft) 100,00 %
03.07.2019 00:20 16,7 C 15,6 C 15,0 C 66 % 1023,2 hPa 0,0 l/m 0 min 0 min 0 W/m 6,4 km/h (2 Bft) 97,87 %
03.07.2019 00:22 16,7 C 15,0 C 15,0 C 66 % 1023,2 hPa 0,0 l/m 0 min 0 min 0 W/m 9,7 km/h (2 Bft) 95,65 %
03.07.2019 00:24 16,7 C 15,6 C 15,0 C 66 % 1023,1 hPa 0,0 l/m 0 min 0 min 0 W/m 16,1 km/h (3 Bft) 97,87 %
03.07.2019 00:26 16,6 C 15,0 C 15,0 C 66 % 1023,1 hPa 0,0 l/m 0 min 0 min 0 W/m 3,2 km/h (1 Bft) 97,87 %
03.07.2019 00:28 16,6 C 15,0 C 15,0 C 66 % 1023,1 hPa 0,0 l/m 0 min 0 min 0 W/m 0,0 km/h (0 Bft) 97,87 %
03.07.2019 00:30 16,6 C 15,0 C 15,0 C 66 % 1023,1 hPa 0,0 l/m 0 min 0 min 0 W/m 3,2 km/h (1 Bft) 97,87 %
03.07.2019 00:32 16,6 C 15,0 C 14,4 C 66 % 1023,1 hPa 0,0 l/m 0 min 0 min 0 W/m 3,2 km/h (1 Bft) 97,87 %
03.07.2019 00:34 16,6 C 14,4 C 14,4 C 66 % 1023,2 hPa 0,0 l/m 0 min 0 min 0 W/m 0,0 km/h (0 Bft) 100,00 %
03.07.2019 00:36 16,6 C 14,4 C 14,4 C 66 % 1023,2 hPa 0,0 l/m 0 min 0 min 0 W/m 3,2 km/h (1 Bft) 97,87 %
03.07.2019 00:38 16,5 C 14,4 C 14,4 C 67 % 1023,2 hPa 0,0 l/m 0 min 0 min 0 W/m 3,2 km/h (1 Bft) 97,87 %
03.07.2019 00:40 16,5 C 14,4 C 14,4 C 66 % 1023,2 hPa 0,0 l/m 0 min 0 min 0 W/m 0,0 km/h (0 Bft) 95,74 %
03.07.2019 00:42 16,4 C 14,4 C 13,9 C 66 % 1023,1 hPa 0,0 l/m 0 min 0 min 0 W/m 0,0 km/h (0 Bft) 97,87 %
03.07.2019 00:44 16,4 C 14,4 C 13,9 C 67 % 1023,1 hPa 0,0 l/m 0 min 0 min 0 W/m 0,0 km/h (0 Bft) 97,87 %
03.07.2019 00:46 16,4 C 13,9 C 13,9 C 67 % 1023,1 hPa 0,0 l/m 0 min 0 min 0 W/m 0,0 km/h (0 Bft) 97,83 %
03.07.2019 00:48 16,4 C 13,9 C 13,9 C 67 % 1023,2 hPa 0,0 l/m 0 min 0 min 0 W/m 3,2 km/h (1 Bft) 97,87 %
03.07.2019 00:50 16,3 C 13,9 C 13,9 C 67 % 1023,2 hPa 0,0 l/m 0 min 0 min 0 W/m 3,2 km/h (1 Bft) 97,87 %
03.07.2019 00:52 16,3 C 13,9 C 13,9 C 67 % 1023,2 hPa 0,0 l/m 0 min 0 min 0 W/m 3,2 km/h (1 Bft) 95,74 %
03.07.2019 00:54 16,3 C 13,9 C 13,9 C 67 % 1023,3 hPa 0,0 l/m 0 min 0 min 0 W/m 3,2 km/h (1 Bft) 97,87 %
03.07.2019 00:56 16,2 C 13,9 C 13,9 C 67 % 1023,3 hPa 0,0 l/m 0 min 0 min 0 W/m 3,2 km/h (1 Bft) 95,74 %
03.07.2019 00:58 16,2 C 13,9 C 13,9 C 67 % 1023,2 hPa 0,0 l/m 0 min 0 min 0 W/m 6,4 km/h (2 Bft) 97,83 %
03.07.2019 01:00 16,1 C 13,9 C 13,9 C 68 % 1023,2 hPa 0,0 l/m 0 min 0 min 0 W/m 3,2 km/h (1 Bft) 97,87 %
03.07.2019 01:02 16,1 C 13,9 C 13,9 C 67 % 1023,2 hPa 0,0 l/m 0 min 0 min 0 W/m 3,2 km/h (1 Bft) 97,87 %
03.07.2019 01:04 16,0 C 13,9 C 13,9 C 68 % 1023,3 hPa 0,0 l/m 0 min 0 min 0 W/m 3,2 km/h (1 Bft) 97,87 %
03.07.2019 01:06 16,0 C 13,9 C 13,9 C 68 % 1023,2 hPa 0,0 l/m 0 min 0 min 0 W/m 3,2 km/h (1 Bft) 97,87 %
03.07.2019 01:08 15,9 C 13,9 C 13,9 C 68 % 1023,2 hPa 0,0 l/m 0 min 0 min 0 W/m 3,2 km/h (1 Bft) 97,87 %
03.07.2019 01:10 15,9 C 14,4 C 13,9 C 68 % 1023,3 hPa 0,0 l/m 0 min 0 min 0 W/m 3,2 km/h (1 Bft) 97,83 %
03.07.2019 01:12 15,8 C 14,4 C 13,9 C 68 % 1023,3 hPa 0,0 l/m 0 min 0 min 0 W/m 3,2 km/h (1 Bft) 97,87 %
03.07.2019 01:14 15,8 C 13,9 C 13,9 C 69 % 1023,3 hPa 0,0 l/m 0 min 0 min 0 W/m 6,4 km/h (2 Bft) 100,00 %
03.07.2019 01:16 15,8 C 14,4 C 13,9 C 69 % 1023,3 hPa 0,0 l/m 0 min 0 min 0 W/m 6,4 km/h (2 Bft) 100,00 %
03.07.2019 01:18 15,7 C 14,4 C 13,9 C 69 % 1023,4 hPa 0,0 l/m 0 min 0 min 0 W/m 6,4 km/h (2 Bft) 100,00 %
03.07.2019 01:20 15,7 C 14,4 C 13,9 C 69 % 1023,3 hPa 0,0 l/m 0 min 0 min 0 W/m 3,2 km/h (1 Bft) 97,87 %
03.07.2019 01:22 15,7 C 14,4 C 13,9 C 69 % 1023,4 hPa 0,0 l/m 0 min 0 min 0 W/m 6,4 km/h (2 Bft) 97,83 %
03.07.2019 01:24 15,7 C 14,4 C 13,9 C 70 % 1023,5 hPa 0,0 l/m 0 min 0 min 0 W/m 3,2 km/h (1 Bft) 100,00 %
03.07.2019 01:26 15,6 C 14,4 C 13,9 C 70 % 1023,5 hPa 0,0 l/m 0 min 0 min 0 W/m 3,2 km/h (1 Bft) 100,00 %
03.07.2019 01:28 15,6 C 14,4 C 13,9 C 70 % 1023,4 hPa 0,0 l/m 0 min 0 min 0 W/m 3,2 km/h (1 Bft) 100,00 %
03.07.2019 01:30 15,6 C 14,4 C 13,9 C 70 % 1023,4 hPa 0,0 l/m 0 min 0 min 0 W/m 3,2 km/h (1 Bft) 97,87 %
03.07.2019 01:32 15,6 C 14,4 C 13,9 C 70 % 1023,5 hPa 0,0 l/m 0 min 0 min 0 W/m 3,2 km/h (1 Bft) 97,83 %
03.07.2019 01:34 15,5 C 14,4 C 13,9 C 70 % 1023,5 hPa 0,0 l/m 0 min 0 min 0 W/m 3,2 km/h (1 Bft) 100,00 %
03.07.2019 01:36 15,5 C 14,4 C 14,4 C 71 % 1023,5 hPa 0,0 l/m 0 min 0 min 0 W/m 6,4 km/h (2 Bft) 100,00 %
03.07.2019 01:38 15,5 C 14,4 C 14,4 C 71 % 1023,5 hPa 0,0 l/m 0 min 0 min 0 W/m 3,2 km/h (1 Bft) 97,87 %
03.07.2019 01:40 15,5 C 14,4 C 14,4 C 71 % 1023,5 hPa 0,0 l/m 0 min 0 min 0 W/m 3,2 km/h (1 Bft) 97,87 %
03.07.2019 01:42 15,5 C 14,4 C 14,4 C 71 % 1023,6 hPa 0,0 l/m 0 min 0 min 0 W/m 6,4 km/h (2 Bft) 95,74 %
03.07.2019 01:44 15,5 C 14,4 C 14,4 C 71 % 1023,5 hPa 0,0 l/m 0 min 0 min 0 W/m 3,2 km/h (1 Bft) 97,83 %
03.07.2019 01:46 15,5 C 14,4 C 14,4 C 71 % 1023,4 hPa 0,0 l/m 0 min 0 min 0 W/m 9,7 km/h (2 Bft) 97,87 %
03.07.2019 01:48 15,5 C 14,4 C 14,4 C 71 % 1023,4 hPa 0,0 l/m 0 min 0 min 0 W/m 6,4 km/h (2 Bft) 97,87 %
03.07.2019 01:50 15,5 C 14,4 C 14,4 C 72 % 1023,4 hPa 0,0 l/m 0 min 0 min 0 W/m 6,4 km/h (2 Bft) 97,87 %
03.07.2019 01:52 15,5 C 14,4 C 14,4 C 72 % 1023,4 hPa 0,0 l/m 0 min 0 min 0 W/m 6,4 km/h (2 Bft) 97,87 %
03.07.2019 01:54 15,5 C 14,4 C 14,4 C 72 % 1023,4 hPa 0,0 l/m 0 min 0 min 0 W/m 6,4 km/h (2 Bft) 97,87 %
03.07.2019 01:56 15,5 C 14,4 C 14,4 C 72 % 1023,4 hPa 0,0 l/m 0 min 0 min 0 W/m 6,4 km/h (2 Bft) 95,65 %
03.07.2019 01:58 15,5 C 14,4 C 14,4 C 72 % 1023,4 hPa 0,0 l/m 0 min 0 min 0 W/m 6,4 km/h (2 Bft) 97,87 %
03.07.2019 02:00 15,5 C 14,4 C 14,4 C 72 % 1023,4 hPa 0,0 l/m 0 min 0 min 0 W/m 6,4 km/h (2 Bft) 95,74 %
03.07.2019 02:02 15,5 C 14,4 C 14,4 C 72 % 1023,3 hPa 0,0 l/m 0 min 0 min 0 W/m 3,2 km/h (1 Bft) 97,87 %
03.07.2019 02:04 15,5 C 14,4 C 14,4 C 72 % 1023,4 hPa 0,0 l/m 0 min 0 min 0 W/m 6,4 km/h (2 Bft) 97,87 %
03.07.2019 02:06 15,5 C 14,4 C 14,4 C 72 % 1023,5 hPa 0,0 l/m 0 min 0 min 0 W/m 6,4 km/h (2 Bft) 95,74 %
03.07.2019 02:08 15,5 C 14,4 C 14,4 C 72 % 1023,4 hPa 0,0 l/m 0 min 0 min 0 W/m 9,7 km/h (2 Bft) 97,83 %
03.07.2019 02:10 15,5 C 14,4 C 14,4 C 72 % 1023,5 hPa 0,0 l/m 0 min 0 min 0 W/m 6,4 km/h (2 Bft) 97,87 %
03.07.2019 02:12 15,5 C 14,4 C 14,4 C 72 % 1023,4 hPa 0,0 l/m 0 min 0 min 0 W/m 6,4 km/h (2 Bft) 97,87 %
03.07.2019 02:14 15,5 C 14,4 C 14,4 C 72 % 1023,5 hPa 0,0 l/m 0 min 0 min 0 W/m 6,4 km/h (2 Bft) 97,87 %
03.07.2019 02:16 15,5 C 14,4 C 14,4 C 72 % 1023,5 hPa 0,0 l/m 0 min 0 min 0 W/m 3,2 km/h (1 Bft) 97,87 %
03.07.2019 02:18 15,5 C 13,9 C 13,9 C 72 % 1023,5 hPa 0,0 l/m 0 min 0 min 0 W/m 3,2 km/h (1 Bft) 95,65 %
03.07.2019 02:20 15,4 C 13,9 C 13,9 C 72 % 1023,5 hPa 0,0 l/m 0 min 0 min 0 W/m 3,2 km/h (1 Bft) 95,74 %
03.07.2019 02:22 15,4 C 13,9 C 13,9 C 73 % 1023,5 hPa 0,0 l/m 0 min 0 min 0 W/m 9,7 km/h (2 Bft) 95,74 %
03.07.2019 02:24 15,4 C 13,9 C 13,9 C 73 % 1023,5 hPa 0,0 l/m 0 min 0 min 0 W/m 3,2 km/h (1 Bft) 95,74 %
03.07.2019 02:26 15,4 C 13,9 C 13,9 C 73 % 1023,5 hPa 0,0 l/m 0 min 0 min 0 W/m 3,2 km/h (1 Bft) 93,62 %
03.07.2019 02:28 15,4 C 13,9 C 13,9 C 73 % 1023,5 hPa 0,0 l/m 0 min 0 min 0 W/m 6,4 km/h (2 Bft) 93,62 %
03.07.2019 02:30 15,4 C 13,9 C 13,9 C 73 % 1023,6 hPa 0,0 l/m 0 min 0 min 0 W/m 9,7 km/h (2 Bft) 97,83 %
03.07.2019 02:32 15,4 C 13,9 C 13,9 C 73 % 1023,6 hPa 0,0 l/m 0 min 0 min 0 W/m 3,2 km/h (1 Bft) 97,87 %
03.07.2019 02:34 15,3 C 13,9 C 13,9 C 73 % 1023,5 hPa 0,0 l/m 0 min 0 min 0 W/m 3,2 km/h (1 Bft) 97,87 %
03.07.2019 02:36 15,3 C 13,9 C 13,9 C 73 % 1023,4 hPa 0,0 l/m 0 min 0 min 0 W/m 3,2 km/h (1 Bft) 97,87 %
03.07.2019 02:38 15,3 C 13,9 C 13,9 C 73 % 1023,5 hPa 0,0 l/m 0 min 0 min 0 W/m 3,2 km/h (1 Bft) 97,87 %
03.07.2019 02:40 15,3 C 13,9 C 13,9 C 74 % 1023,5 hPa 0,0 l/m 0 min 0 min 0 W/m 6,4 km/h (2 Bft) 97,87 %
03.07.2019 02:42 15,2 C 13,9 C 13,9 C 74 % 1023,6 hPa 0,0 l/m 0 min 0 min 0 W/m 9,7 km/h (2 Bft) 97,83 %
03.07.2019 02:44 15,2 C 13,9 C 13,9 C 74 % 1023,6 hPa 0,0 l/m 0 min 0 min 0 W/m 9,7 km/h (2 Bft) 97,87 %
03.07.2019 02:46 15,2 C 13,9 C 13,9 C 74 % 1023,6 hPa 0,0 l/m 0 min 0 min 0 W/m 6,4 km/h (2 Bft) 97,87 %
03.07.2019 02:48 15,2 C 13,9 C 13,3 C 74 % 1023,6 hPa 0,0 l/m 0 min 0 min 0 W/m 6,4 km/h (2 Bft) 95,74 %
03.07.2019 02:50 15,1 C 13,3 C 13,3 C 74 % 1023,6 hPa 0,0 l/m 0 min 0 min 0 W/m 3,2 km/h (1 Bft) 97,87 %
03.07.2019 02:52 15,1 C 13,3 C 13,3 C 74 % 1023,6 hPa 0,0 l/m 0 min 0 min 0 W/m 6,4 km/h (2 Bft) 95,74 %
03.07.2019 02:54 15,1 C 13,3 C 13,3 C 74 % 1023,6 hPa 0,0 l/m 0 min 0 min 0 W/m 3,2 km/h (1 Bft) 97,83 %
03.07.2019 02:56 15,1 C 13,3 C 13,3 C 74 % 1023,6 hPa 0,0 l/m 0 min 0 min 0 W/m 3,2 km/h (1 Bft) 97,87 %
03.07.2019 02:58 15,1 C 13,3 C 13,3 C 74 % 1023,5 hPa 0,0 l/m 0 min 0 min 0 W/m 3,2 km/h (1 Bft) 97,87 %
03.07.2019 03:00 15,0 C 13,3 C 12,8 C 74 % 1023,6 hPa 0,0 l/m 0 min 0 min 0 W/m 3,2 km/h (1 Bft) 97,87 %
03.07.2019 03:02 15,0 C 12,8 C 12,8 C 74 % 1023,6 hPa 0,0 l/m 0 min 0 min 0 W/m 3,2 km/h (1 Bft) 97,87 %
03.07.2019 03:04 14,9 C 12,8 C 12,8 C 74 % 1023,6 hPa 0,0 l/m 0 min 0 min 0 W/m 0,0 km/h (0 Bft) 97,87 %
03.07.2019 03:06 14,9 C 12,8 C 12,8 C 74 % 1023,6 hPa 0,0 l/m 0 min 0 min 0 W/m 3,2 km/h (1 Bft) 97,83 %
03.07.2019 03:08 14,9 C 12,8 C 12,8 C 74 % 1023,6 hPa 0,0 l/m 0 min 0 min 0 W/m 6,4 km/h (2 Bft) 97,87 %
03.07.2019 03:10 14,9 C 12,8 C 12,8 C 74 % 1023,5 hPa 0,0 l/m 0 min 0 min 0 W/m 3,2 km/h (1 Bft) 97,87 %
03.07.2019 03:12 14,8 C 12,8 C 12,8 C 75 % 1023,6 hPa 0,0 l/m 0 min 0 min 0 W/m 9,7 km/h (2 Bft) 97,87 %
03.07.2019 03:14 14,8 C 12,8 C 12,8 C 75 % 1023,6 hPa 0,0 l/m 0 min 0 min 0 W/m 0,0 km/h (0 Bft) 97,87 %
03.07.2019 03:16 14,8 C 12,8 C 12,8 C 75 % 1023,6 hPa 0,0 l/m 0 min 0 min 0 W/m 3,2 km/h (1 Bft) 95,74 %
03.07.2019 03:18 14,7 C 12,2 C 12,2 C 75 % 1023,6 hPa 0,0 l/m 0 min 0 min 0 W/m 3,2 km/h (1 Bft) 95,65 %
03.07.2019 03:20 14,7 C 12,2 C 12,2 C 75 % 1023,6 hPa 0,0 l/m 0 min 0 min 0 W/m 0,0 km/h (0 Bft) 95,74 %
03.07.2019 03:22 14,6 C 12,2 C 12,2 C 75 % 1023,6 hPa 0,0 l/m 0 min 0 min 0 W/m 0,0 km/h (0 Bft) 95,74 %
03.07.2019 03:24 14,6 C 12,2 C 12,2 C 75 % 1023,5 hPa 0,0 l/m 0 min 0 min 0 W/m 0,0 km/h (0 Bft) 95,74 %
03.07.2019 03:26 14,6 C 12,2 C 12,2 C 75 % 1023,5 hPa 0,0 l/m 0 min 0 min 0 W/m 0,0 km/h (0 Bft) 95,74 %
03.07.2019 03:28 14,5 C 12,2 C 12,2 C 75 % 1023,5 hPa 0,0 l/m 0 min 0 min 0 W/m 0,0 km/h (0 Bft) 93,62 %
03.07.2019 03:30 14,4 C 12,2 C 12,2 C 75 % 1023,6 hPa 0,0 l/m 0 min 0 min 0 W/m 0,0 km/h (0 Bft) 95,65 %
03.07.2019 03:32 14,4 C 12,2 C 12,2 C 76 % 1023,6 hPa 0,0 l/m 0 min 0 min 0 W/m 0,0 km/h (0 Bft) 95,74 %
03.07.2019 03:34 14,4 C 12,2 C 12,2 C 76 % 1023,6 hPa 0,0 l/m 0 min 0 min 0 W/m 0,0 km/h (0 Bft) 97,87 %
03.07.2019 03:36 14,3 C 12,2 C 12,2 C 76 % 1023,6 hPa 0,0 l/m 0 min 0 min 0 W/m 0,0 km/h (0 Bft) 95,74 %
03.07.2019 03:38 14,2 C 12,2 C 12,2 C 76 % 1023,5 hPa 0,0 l/m 0 min 0 min 0 W/m 0,0 km/h (0 Bft) 95,74 %
03.07.2019 03:40 14,2 C 12,2 C 12,2 C 76 % 1023,6 hPa 0,0 l/m 0 min 0 min 0 W/m 0,0 km/h (0 Bft) 95,65 %
03.07.2019 03:42 14,2 C 12,2 C 12,2 C 76 % 1023,6 hPa 0,0 l/m 0 min 0 min 0 W/m 0,0 km/h (0 Bft) 95,74 %
03.07.2019 03:44 14,2 C 12,2 C 12,2 C 76 % 1023,4 hPa 0,0 l/m 0 min 0 min 0 W/m 0,0 km/h (0 Bft) 97,87 %
03.07.2019 03:46 14,2 C 12,2 C 12,2 C 77 % 1023,5 hPa 0,0 l/m 0 min 0 min 0 W/m 0,0 km/h (0 Bft) 95,74 %
03.07.2019 03:48 14,2 C 12,2 C 12,2 C 77 % 1023,5 hPa 0,0 l/m 0 min 0 min 0 W/m 0,0 km/h (0 Bft) 97,87 %
03.07.2019 03:50 14,2 C 12,2 C 12,2 C 77 % 1023,6 hPa 0,0 l/m 0 min 0 min 0 W/m 3,2 km/h (1 Bft) 95,74 %
03.07.2019 03:52 14,1 C 12,2 C 12,2 C 77 % 1023,5 hPa 0,0 l/m 0 min 0 min 0 W/m 0,0 km/h (0 Bft) 97,83 %
03.07.2019 03:54 14,0 C 12,2 C 12,2 C 77 % 1023,5 hPa 0,0 l/m 0 min 0 min 0 W/m 0,0 km/h (0 Bft) 97,87 %
03.07.2019 03:56 13,9 C 12,2 C 12,2 C 78 % 1023,5 hPa 0,0 l/m 0 min 0 min 0 W/m 0,0 km/h (0 Bft) 97,87 %
03.07.2019 03:58 13,9 C 12,2 C 12,2 C 78 % 1023,5 hPa 0,0 l/m 0 min 0 min 0 W/m 3,2 km/h (1 Bft) 95,74 %
03.07.2019 04:00 13,9 C 12,2 C 12,2 C 78 % 1023,5 hPa 0,0 l/m 0 min 0 min 0 W/m 0,0 km/h (0 Bft) 97,87 %
03.07.2019 04:02 13,8 C 12,2 C 12,2 C 78 % 1023,5 hPa 0,0 l/m 0 min 0 min 0 W/m 0,0 km/h (0 Bft) 96,67 %
03.07.2019 04:04 13,8 C 12,2 C 12,2 C 78 % 1023,5 hPa 0,0 l/m 0 min 0 min 0 W/m 0,0 km/h (0 Bft) 95,65 %
03.07.2019 04:06 13,8 C 12,2 C 12,2 C 78 % 1023,4 hPa 0,0 l/m 0 min 0 min 0 W/m 0,0 km/h (0 Bft) 95,74 %
03.07.2019 04:08 13,8 C 12,2 C 12,2 C 79 % 1023,4 hPa 0,0 l/m 0 min 0 min 0 W/m 3,2 km/h (1 Bft) 91,49 %
03.07.2019 04:10 13,7 C 12,2 C 12,2 C 79 % 1023,4 hPa 0,0 l/m 0 min 0 min 0 W/m 0,0 km/h (0 Bft) 95,74 %
03.07.2019 04:12 13,7 C 12,2 C 12,2 C 79 % 1023,4 hPa 0,0 l/m 0 min 0 min 0 W/m 3,2 km/h (1 Bft) 95,74 %
03.07.2019 04:14 13,7 C 12,2 C 12,2 C 79 % 1023,4 hPa 0,0 l/m 0 min 0 min 0 W/m 3,2 km/h (1 Bft) 95,74 %
03.07.2019 04:16 13,7 C 12,2 C 12,2 C 79 % 1023,4 hPa 0,0 l/m 0 min 0 min 0 W/m 0,0 km/h (0 Bft) 97,83 %
03.07.2019 04:18 13,7 C 12,2 C 12,2 C 80 % 1023,5 hPa 0,0 l/m 0 min 0 min 0 W/m 0,0 km/h (0 Bft) 97,87 %
03.07.2019 04:20 13,6 C 12,2 C 12,2 C 80 % 1023,5 hPa 0,0 l/m 0 min 0 min 0 W/m 3,2 km/h (1 Bft) 95,74 %
03.07.2019 04:22 13,6 C 12,2 C 12,2 C 80 % 1023,5 hPa 0,0 l/m 0 min 0 min 0 W/m 3,2 km/h (1 Bft) 97,87 %
03.07.2019 04:24 13,6 C 12,2 C 12,2 C 81 % 1023,5 hPa 0,0 l/m 0 min 0 min 0 W/m 3,2 km/h (1 Bft) 97,87 %
03.07.2019 04:26 13,6 C 12,8 C 12,2 C 81 % 1023,5 hPa 0,0 l/m 0 min 0 min 0 W/m 6,4 km/h (2 Bft) 97,87 %
03.07.2019 04:28 13,6 C 12,8 C 12,2 C 81 % 1023,4 hPa 0,0 l/m 0 min 0 min 0 W/m 3,2 km/h (1 Bft) 95,65 %
03.07.2019 04:30 13,6 C 12,8 C 12,2 C 82 % 1023,4 hPa 0,0 l/m 0 min 0 min 0 W/m 3,2 km/h (1 Bft) 97,87 %
03.07.2019 04:32 13,6 C 12,8 C 12,2 C 82 % 1023,4 hPa 0,0 l/m 0 min 0 min 0 W/m 0,0 km/h (0 Bft) 97,87 %
03.07.2019 04:34 13,6 C 12,8 C 12,2 C 82 % 1023,5 hPa 0,0 l/m 0 min 0 min 0 W/m 6,4 km/h (2 Bft) 97,87 %
03.07.2019 04:36 13,6 C 12,8 C 12,2 C 83 % 1023,5 hPa 0,0 l/m 0 min 0 min 0 W/m 6,4 km/h (2 Bft) 97,87 %
03.07.2019 04:38 13,6 C 12,8 C 12,2 C 83 % 1023,5 hPa 0,0 l/m 0 min 0 min 0 W/m 6,4 km/h (2 Bft) 97,83 %
03.07.2019 04:40 13,6 C 12,8 C 12,2 C 83 % 1023,5 hPa 0,0 l/m 0 min 0 min 0 W/m 3,2 km/h (1 Bft) 97,87 %
03.07.2019 04:42 13,6 C 12,8 C 12,2 C 83 % 1023,5 hPa 0,0 l/m 0 min 0 min 0 W/m 3,2 km/h (1 Bft) 95,74 %
03.07.2019 04:44 13,6 C 12,8 C 12,2 C 83 % 1023,5 hPa 0,0 l/m 0 min 0 min 0 W/m 3,2 km/h (1 Bft) 97,87 %
03.07.2019 04:46 13,6 C 12,8 C 12,2 C 83 % 1023,4 hPa 0,0 l/m 0 min 0 min 0 W/m 6,4 km/h (2 Bft) 97,87 %
03.07.2019 04:48 13,6 C 12,8 C 12,2 C 83 % 1023,5 hPa 0,0 l/m 0 min 0 min 0 W/m 3,2 km/h (1 Bft) 100,00 %
03.07.2019 04:50 13,6 C 12,8 C 12,2 C 83 % 1023,5 hPa 0,0 l/m 0 min 0 min 0 W/m 3,2 km/h (1 Bft) 100,00 %
03.07.2019 04:52 13,6 C 12,2 C 12,2 C 83 % 1023,6 hPa 0,0 l/m 0 min 0 min 0 W/m 0,0 km/h (0 Bft) 100,00 %
03.07.2019 04:54 13,6 C 12,2 C 12,2 C 83 % 1023,6 hPa 0,0 l/m 0 min 0 min 0 W/m 3,2 km/h (1 Bft) 100,00 %
03.07.2019 04:56 13,6 C 12,2 C 12,2 C 83 % 1023,5 hPa 0,0 l/m 0 min 0 min 0 W/m 3,2 km/h (1 Bft) 100,00 %
03.07.2019 04:58 13,6 C 12,2 C 12,2 C 83 % 1023,5 hPa 0,0 l/m 0 min 0 min 0 W/m 0,0 km/h (0 Bft) 100,00 %
03.07.2019 05:00 13,6 C 12,2 C 12,2 C 83 % 1023,5 hPa 0,0 l/m 0 min 0 min 0 W/m 0,0 km/h (0 Bft) 100,00 %
03.07.2019 05:02 13,6 C 12,2 C 12,2 C 83 % 1023,6 hPa 0,0 l/m 0 min 0 min 0 W/m 0,0 km/h (0 Bft) 97,83 %
03.07.2019 05:04 13,6 C 12,2 C 12,2 C 83 % 1023,6 hPa 0,0 l/m 0 min 0 min 0 W/m 0,0 km/h (0 Bft) 100,00 %
03.07.2019 05:06 13,6 C 12,2 C 12,2 C 83 % 1023,6 hPa 0,0 l/m 0 min 0 min 0 W/m 0,0 km/h (0 Bft) 97,87 %
03.07.2019 05:08 13,5 C 12,2 C 12,2 C 83 % 1023,6 hPa 0,0 l/m 0 min 0 min 0 W/m 0,0 km/h (0 Bft) 97,87 %
03.07.2019 05:10 13,5 C 12,2 C 12,2 C 83 % 1023,6 hPa 0,0 l/m 0 min 0 min 0 W/m 0,0 km/h (0 Bft) 100,00 %
03.07.2019 05:12 13,5 C 12,2 C 12,2 C 83 % 1023,6 hPa 0,0 l/m 0 min 0 min 0 W/m 0,0 km/h (0 Bft) 100,00 %
03.07.2019 05:14 13,5 C 12,2 C 12,2 C 83 % 1023,6 hPa 0,0 l/m 0 min 0 min 0 W/m 0,0 km/h (0 Bft) 100,00 %
03.07.2019 05:16 13,5 C 12,2 C 12,2 C 83 % 1023,5 hPa 0,0 l/m 0 min 0 min 0 W/m 3,2 km/h (1 Bft) 100,00 %
03.07.2019 05:18 13,5 C 12,2 C 12,2 C 83 % 1023,6 hPa 0,0 l/m 0 min 0 min 0 W/m 3,2 km/h (1 Bft) 100,00 %
03.07.2019 05:20 13,4 C 12,2 C 12,2 C 83 % 1023,6 hPa 0,0 l/m 0 min 0 min 0 W/m 3,2 km/h (1 Bft) 100,00 %
03.07.2019 05:22 13,4 C 12,2 C 12,2 C 84 % 1023,7 hPa 0,0 l/m 0 min 0 min 0 W/m 3,2 km/h (1 Bft) 97,87 %
03.07.2019 05:24 13,4 C 12,2 C 12,2 C 84 % 1023,6 hPa 0,0 l/m 0 min 0 min 0 W/m 3,2 km/h (1 Bft) 97,87 %
03.07.2019 05:26 13,4 C 12,2 C 12,2 C 84 % 1023,6 hPa 0,0 l/m 0 min 0 min 0 W/m 3,2 km/h (1 Bft) 100,00 %
03.07.2019 05:28 13,4 C 12,2 C 12,2 C 84 % 1023,7 hPa 0,0 l/m 0 min 0 min 0 W/m 3,2 km/h (1 Bft) 100,00 %
03.07.2019 05:30 13,4 C 12,2 C 12,2 C 84 % 1023,8 hPa 0,0 l/m 0 min 0 min 0 W/m 3,2 km/h (1 Bft) 100,00 %
03.07.2019 05:32 13,4 C 12,2 C 11,7 C 84 % 1023,7 hPa 0,0 l/m 0 min 0 min 5 W/m 3,2 km/h (1 Bft) 100,00 %
03.07.2019 05:34 13,4 C 12,2 C 11,7 C 84 % 1023,8 hPa 0,0 l/m 0 min 0 min 5 W/m 3,2 km/h (1 Bft) 100,00 %
03.07.2019 05:36 13,4 C 12,2 C 11,7 C 84 % 1023,7 hPa 0,0 l/m 0 min 0 min 5 W/m 3,2 km/h (1 Bft) 97,87 %
03.07.2019 05:38 13,3 C 12,2 C 11,7 C 84 % 1023,7 hPa 0,0 l/m 0 min 0 min 5 W/m 3,2 km/h (1 Bft) 100,00 %
03.07.2019 05:40 13,3 C 12,2 C 11,7 C 84 % 1023,7 hPa 0,0 l/m 0 min 0 min 6 W/m 3,2 km/h (1 Bft) 100,00 %
03.07.2019 05:42 13,3 C 12,2 C 11,7 C 84 % 1023,8 hPa 0,0 l/m 0 min 0 min 7 W/m 0,0 km/h (0 Bft) 100,00 %
03.07.2019 05:44 13,3 C 12,2 C 11,7 C 84 % 1023,8 hPa 0,0 l/m 0 min 0 min 7 W/m 0,0 km/h (0 Bft) 100,00 %
03.07.2019 05:46 13,3 C 12,2 C 11,7 C 84 % 1023,9 hPa 0,0 l/m 0 min 0 min 9 W/m 3,2 km/h (1 Bft) 100,00 %
03.07.2019 05:48 13,3 C 12,2 C 11,7 C 84 % 1023,8 hPa 0,0 l/m 0 min 0 min 10 W/m 0,0 km/h (0 Bft) 100,00 %
03.07.2019 05:50 13,3 C 12,2 C 12,2 C 84 % 1023,9 hPa 0,0 l/m 0 min 0 min 11 W/m 3,2 km/h (1 Bft) 100,00 %
03.07.2019 05:52 13,2 C 12,2 C 12,2 C 84 % 1023,9 hPa 0,0 l/m 0 min 0 min 12 W/m 0,0 km/h (0 Bft) 100,00 %
03.07.2019 05:54 13,2 C 12,2 C 12,2 C 84 % 1023,8 hPa 0,0 l/m 0 min 0 min 12 W/m 0,0 km/h (0 Bft) 97,87 %
03.07.2019 05:56 13,2 C 12,2 C 12,2 C 84 % 1023,8 hPa 0,0 l/m 0 min 0 min 13 W/m 0,0 km/h (0 Bft) 97,87 %
03.07.2019 05:58 13,2 C 12,2 C 12,2 C 84 % 1023,9 hPa 0,0 l/m 0 min 0 min 16 W/m 0,0 km/h (0 Bft) 95,74 %
03.07.2019 06:00 13,2 C 12,2 C 11,7 C 84 % 1023,9 hPa 0,0 l/m 0 min 0 min 16 W/m 3,2 km/h (1 Bft) 97,14 %
03.07.2019 06:02 13,2 C 12,2 C 11,7 C 85 % 1023,9 hPa 0,0 l/m 0 min 0 min 17 W/m 0,0 km/h (0 Bft) 98,21 %
03.07.2019 06:04 13,2 C 12,2 C 11,7 C 85 % 1023,9 hPa 0,0 l/m 0 min 0 min 19 W/m 3,2 km/h (1 Bft) 100,00 %
03.07.2019 06:08 13,2 C 12,2 C 11,7 C 85 % 1023,9 hPa 0,0 l/m 0 min 0 min 21 W/m 0,0 km/h (0 Bft) 100,00 %
03.07.2019 06:10 13,1 C 12,2 C 11,7 C 85 % 1023,8 hPa 0,0 l/m 0 min 0 min 21 W/m 3,2 km/h (1 Bft) 97,87 %
03.07.2019 06:12 13,1 C 12,2 C 11,7 C 85 % 1023,8 hPa 0,0 l/m 0 min 0 min 22 W/m 3,2 km/h (1 Bft) 97,83 %
03.07.2019 06:14 13,1 C 12,2 C 11,7 C 85 % 1023,9 hPa 0,0 l/m 0 min 0 min 25 W/m 3,2 km/h (1 Bft) 100,00 %
03.07.2019 06:16 13,1 C 12,2 C 11,7 C 85 % 1023,9 hPa 0,0 l/m 0 min 0 min 25 W/m 6,4 km/h (2 Bft) 97,87 %
03.07.2019 06:18 13,1 C 12,2 C 12,2 C 85 % 1023,9 hPa 0,0 l/m 0 min 0 min 26 W/m 3,2 km/h (1 Bft) 100,00 %
03.07.2019 06:20 13,1 C 12,2 C 12,2 C 85 % 1023,9 hPa 0,0 l/m 0 min 0 min 29 W/m 6,4 km/h (2 Bft) 100,00 %
03.07.2019 06:22 13,1 C 12,2 C 12,2 C 85 % 1023,9 hPa 0,0 l/m 0 min 0 min 30 W/m 3,2 km/h (1 Bft) 97,87 %
03.07.2019 06:24 13,1 C 12,2 C 12,2 C 85 % 1023,9 hPa 0,0 l/m 0 min 0 min 30 W/m 3,2 km/h (1 Bft) 89,13 %
03.07.2019 06:26 13,1 C 12,2 C 12,2 C 86 % 1023,9 hPa 0,0 l/m 0 min 0 min 31 W/m 3,2 km/h (1 Bft) 95,74 %
03.07.2019 06:28 13,1 C 12,2 C 12,2 C 86 % 1024,0 hPa 0,0 l/m 0 min 0 min 32 W/m 0,0 km/h (0 Bft) 95,74 %
03.07.2019 06:30 13,1 C 12,2 C 12,2 C 86 % 1024,0 hPa 0,0 l/m 0 min 0 min 32 W/m 6,4 km/h (2 Bft) 93,62 %
03.07.2019 06:32 13,1 C 12,2 C 12,2 C 86 % 1023,9 hPa 0,0 l/m 0 min 0 min 35 W/m 3,2 km/h (1 Bft) 93,62 %
03.07.2019 06:34 13,1 C 12,8 C 12,2 C 86 % 1024,0 hPa 0,0 l/m 0 min 0 min 39 W/m 3,2 km/h (1 Bft) 93,62 %
03.07.2019 06:36 13,1 C 12,8 C 12,2 C 86 % 1023,9 hPa 0,0 l/m 0 min 0 min 43 W/m 0,0 km/h (0 Bft) 93,48 %
03.07.2019 06:38 13,1 C 12,8 C 12,2 C 86 % 1023,9 hPa 0,0 l/m 0 min 0 min 42 W/m 0,0 km/h (0 Bft) 93,62 %
03.07.2019 06:40 13,1 C 12,8 C 12,2 C 86 % 1023,9 hPa 0,0 l/m 0 min 0 min 44 W/m 0,0 km/h (0 Bft) 93,62 %
03.07.2019 06:42 13,1 C 12,8 C 12,2 C 86 % 1023,9 hPa 0,0 l/m 0 min 0 min 43 W/m 3,2 km/h (1 Bft) 93,62 %
03.07.2019 06:44 13,1 C 12,8 C 12,2 C 86 % 1024,0 hPa 0,0 l/m 0 min 0 min 40 W/m 3,2 km/h (1 Bft) 91,49 %
03.07.2019 06:46 13,1 C 12,8 C 12,2 C 86 % 1023,9 hPa 0,0 l/m 0 min 0 min 41 W/m 0,0 km/h (0 Bft) 93,62 %
03.07.2019 06:48 13,1 C 12,8 C 12,8 C 86 % 1023,9 hPa 0,0 l/m 0 min 0 min 40 W/m 3,2 km/h (1 Bft) 91,30 %
03.07.2019 06:50 13,1 C 12,8 C 12,8 C 86 % 1024,0 hPa 0,0 l/m 0 min 0 min 40 W/m 0,0 km/h (0 Bft) 93,62 %
03.07.2019 06:52 13,1 C 12,8 C 12,2 C 87 % 1024,1 hPa 0,0 l/m 0 min 0 min 39 W/m 3,2 km/h (1 Bft) 93,62 %
03.07.2019 06:54 13,1 C 12,8 C 12,2 C 87 % 1024,1 hPa 0,0 l/m 0 min 0 min 39 W/m 3,2 km/h (1 Bft) 89,36 %
03.07.2019 06:56 13,1 C 13,3 C 12,8 C 87 % 1024,1 hPa 0,0 l/m 0 min 0 min 40 W/m 6,4 km/h (2 Bft) 93,62 %
03.07.2019 06:58 13,1 C 13,3 C 12,8 C 87 % 1024,0 hPa 0,0 l/m 0 min 0 min 40 W/m 3,2 km/h (1 Bft) 91,49 %
03.07.2019 07:00 13,2 C 13,3 C 12,8 C 87 % 1024,1 hPa 0,0 l/m 0 min 0 min 40 W/m 0,0 km/h (0 Bft) 89,13 %
03.07.2019 07:02 13,2 C 13,3 C 12,8 C 87 % 1024,1 hPa 0,0 l/m 0 min 0 min 40 W/m 0,0 km/h (0 Bft) 93,62 %
03.07.2019 07:04 13,2 C 13,3 C 12,8 C 87 % 1024,1 hPa 0,0 l/m 0 min 0 min 47 W/m 0,0 km/h (0 Bft) 93,62 %
03.07.2019 07:06 13,2 C 13,3 C 12,8 C 87 % 1024,1 hPa 0,0 l/m 0 min 0 min 54 W/m 0,0 km/h (0 Bft) 93,62 %
03.07.2019 07:08 13,2 C 13,3 C 12,8 C 87 % 1024,1 hPa 0,0 l/m 0 min 0 min 57 W/m 3,2 km/h (1 Bft) 95,74 %
03.07.2019 07:10 13,2 C 13,3 C 12,8 C 87 % 1024,1 hPa 0,0 l/m 0 min 0 min 56 W/m 6,4 km/h (2 Bft) 93,48 %
03.07.2019 07:12 13,3 C 13,9 C 13,3 C 88 % 1024,1 hPa 0,0 l/m 0 min 0 min 51 W/m 3,2 km/h (1 Bft) 95,74 %
03.07.2019 07:14 13,3 C 13,9 C 13,3 C 88 % 1024,1 hPa 0,0 l/m 0 min 0 min 46 W/m 3,2 km/h (1 Bft) 97,87 %
03.07.2019 07:16 13,3 C 13,9 C 13,3 C 88 % 1024,1 hPa 0,0 l/m 0 min 0 min 44 W/m 9,7 km/h (2 Bft) 95,74 %
03.07.2019 07:18 13,4 C 13,9 C 13,3 C 88 % 1024,2 hPa 0,0 l/m 0 min 0 min 45 W/m 3,2 km/h (1 Bft) 95,74 %
03.07.2019 07:20 13,4 C 13,9 C 13,3 C 88 % 1024,2 hPa 0,0 l/m 0 min 0 min 46 W/m 6,4 km/h (2 Bft) 97,87 %
03.07.2019 07:22 13,4 C 13,9 C 13,3 C 88 % 1024,1 hPa 0,0 l/m 0 min 0 min 46 W/m 6,4 km/h (2 Bft) 95,65 %
03.07.2019 07:24 13,4 C 13,9 C 13,3 C 88 % 1024,2 hPa 0,0 l/m 0 min 0 min 47 W/m 3,2 km/h (1 Bft) 97,87 %
03.07.2019 07:26 13,5 C 13,9 C 13,3 C 88 % 1024,2 hPa 0,0 l/m 0 min 0 min 47 W/m 3,2 km/h (1 Bft) 95,74 %
03.07.2019 07:28 13,6 C 13,9 C 13,3 C 88 % 1024,2 hPa 0,0 l/m 0 min 0 min 49 W/m 6,4 km/h (2 Bft) 100,00 %
03.07.2019 07:30 13,6 C 13,9 C 13,3 C 87 % 1024,2 hPa 0,0 l/m 0 min 0 min 50 W/m 6,4 km/h (2 Bft) 95,74 %
03.07.2019 07:32 13,7 C 13,9 C 13,3 C 87 % 1024,1 hPa 0,0 l/m 0 min 0 min 52 W/m 3,2 km/h (1 Bft) 100,00 %
03.07.2019 07:34 13,7 C 14,4 C 13,3 C 87 % 1024,2 hPa 0,0 l/m 0 min 0 min 54 W/m 6,4 km/h (2 Bft) 97,83 %
03.07.2019 07:36 13,7 C 14,4 C 13,9 C 87 % 1024,1 hPa 0,0 l/m 0 min 0 min 57 W/m 6,4 km/h (2 Bft) 97,87 %
03.07.2019 07:38 13,8 C 14,4 C 13,9 C 87 % 1024,1 hPa 0,0 l/m 0 min 0 min 58 W/m 6,4 km/h (2 Bft) 100,00 %
03.07.2019 07:40 13,8 C 14,4 C 13,9 C 87 % 1024,1 hPa 0,0 l/m 0 min 0 min 60 W/m 6,4 km/h (2 Bft) 100,00 %
03.07.2019 07:42 13,9 C 14,4 C 13,9 C 87 % 1024,2 hPa 0,0 l/m 0 min 0 min 64 W/m 9,7 km/h (2 Bft) 100,00 %
03.07.2019 07:44 13,9 C 14,4 C 13,9 C 87 % 1024,2 hPa 0,0 l/m 0 min 0 min 78 W/m 6,4 km/h (2 Bft) 100,00 %
03.07.2019 07:46 14,0 C 15,0 C 14,4 C 86 % 1024,2 hPa 0,0 l/m 0 min 0 min 85 W/m 3,2 km/h (1 Bft) 100,00 %
03.07.2019 07:48 14,1 C 15,0 C 14,4 C 86 % 1024,3 hPa 0,0 l/m 0 min 0 min 84 W/m 3,2 km/h (1 Bft) 100,00 %
03.07.2019 07:50 14,2 C 15,6 C 14,4 C 86 % 1024,2 hPa 0,0 l/m 0 min 0 min 82 W/m 3,2 km/h (1 Bft) 97,87 %
03.07.2019 07:52 14,2 C 15,6 C 14,4 C 86 % 1024,2 hPa 0,0 l/m 0 min 0 min 74 W/m 6,4 km/h (2 Bft) 100,00 %
03.07.2019 07:54 14,2 C 15,6 C 14,4 C 86 % 1024,2 hPa 0,0 l/m 0 min 0 min 76 W/m 6,4 km/h (2 Bft) 100,00 %
03.07.2019 07:56 14,2 C 15,6 C 15,0 C 86 % 1024,2 hPa 0,0 l/m 0 min 0 min 81 W/m 3,2 km/h (1 Bft) 100,00 %
03.07.2019 07:58 14,2 C 15,6 C 15,0 C 86 % 1024,2 hPa 0,0 l/m 0 min 0 min 83 W/m 3,2 km/h (1 Bft) 100,00 %
03.07.2019 08:00 14,3 C 16,1 C 15,0 C 86 % 1024,2 hPa 0,0 l/m 0 min 0 min 86 W/m 6,4 km/h (2 Bft) 100,00 %
03.07.2019 08:02 14,4 C 16,1 C 15,0 C 86 % 1024,3 hPa 0,0 l/m 0 min 0 min 95 W/m 6,4 km/h (2 Bft) 100,00 %
03.07.2019 08:04 14,5 C 17,2 C 15,0 C 85 % 1024,3 hPa 0,0 l/m 0 min 0 min 110 W/m 6,4 km/h (2 Bft) 100,00 %
03.07.2019 08:06 14,6 C 17,2 C 15,0 C 85 % 1024,3 hPa 0,0 l/m 0 min 0 min 122 W/m 3,2 km/h (1 Bft) 100,00 %
03.07.2019 08:08 14,6 C 17,8 C 15,6 C 85 % 1024,3 hPa 0,0 l/m 0 min 0 min 140 W/m 6,4 km/h (2 Bft) 100,00 %
03.07.2019 08:10 14,7 C 17,8 C 15,6 C 85 % 1024,3 hPa 0,0 l/m 0 min 0 min 154 W/m 9,7 km/h (2 Bft) 100,00 %
03.07.2019 08:12 14,8 C 17,8 C 16,1 C 84 % 1024,3 hPa 0,0 l/m 0 min 0 min 148 W/m 6,4 km/h (2 Bft) 97,87 %
03.07.2019 08:14 14,9 C 17,8 C 16,1 C 84 % 1024,4 hPa 0,0 l/m 0 min 0 min 145 W/m 6,4 km/h (2 Bft) 97,87 %
03.07.2019 08:16 15,1 C 17,2 C 16,7 C 84 % 1024,4 hPa 0,0 l/m 0 min 0 min 136 W/m 6,4 km/h (2 Bft) 97,87 %
03.07.2019 08:18 15,1 C 17,2 C 16,7 C 84 % 1024,4 hPa 0,0 l/m 0 min 0 min 128 W/m 3,2 km/h (1 Bft) 100,00 %
03.07.2019 08:20 15,2 C 17,2 C 16,1 C 84 % 1024,4 hPa 0,0 l/m 0 min 0 min 130 W/m 6,4 km/h (2 Bft) 100,00 %
03.07.2019 08:22 15,3 C 17,2 C 16,7 C 83 % 1024,4 hPa 0,0 l/m 0 min 0 min 137 W/m 6,4 km/h (2 Bft) 100,00 %
03.07.2019 08:24 15,4 C 17,8 C 16,7 C 83 % 1024,4 hPa 0,0 l/m 0 min 0 min 139 W/m 6,4 km/h (2 Bft) 100,00 %
03.07.2019 08:26 15,5 C 18,9 C 16,7 C 83 % 1024,3 hPa 0,0 l/m 0 min 0 min 145 W/m 9,7 km/h (2 Bft) 100,00 %
03.07.2019 08:28 15,6 C 18,9 C 16,7 C 83 % 1024,3 hPa 0,0 l/m 0 min 0 min 145 W/m 6,4 km/h (2 Bft) 97,87 %
03.07.2019 08:30 15,7 C 18,3 C 16,7 C 81 % 1024,3 hPa 0,0 l/m 0 min 0 min 142 W/m 6,4 km/h (2 Bft) 100,00 %
03.07.2019 08:32 15,9 C 18,9 C 18,3 C 81 % 1024,4 hPa 0,0 l/m 0 min 0 min 132 W/m 3,2 km/h (1 Bft) 100,00 %
03.07.2019 08:34 16,0 C 19,4 C 18,9 C 81 % 1024,4 hPa 0,0 l/m 0 min 0 min 114 W/m 6,4 km/h (2 Bft) 100,00 %
03.07.2019 08:36 16,1 C 20,6 C 20,0 C 81 % 1024,4 hPa 0,0 l/m 0 min 0 min 102 W/m 3,2 km/h (1 Bft) 100,00 %
03.07.2019 08:38 16,2 C 21,7 C 21,7 C 81 % 1024,5 hPa 0,0 l/m 0 min 0 min 96 W/m 6,4 km/h (2 Bft) 100,00 %
03.07.2019 08:40 16,4 C 22,2 C 22,2 C 80 % 1024,5 hPa 0,0 l/m 0 min 0 min 86 W/m 3,2 km/h (1 Bft) 100,00 %
03.07.2019 08:42 16,6 C 22,8 C 23,3 C 80 % 1024,6 hPa 0,0 l/m 0 min 0 min 97 W/m 6,4 km/h (2 Bft) 100,00 %
03.07.2019 08:44 16,7 C 23,3 C 24,4 C 80 % 1024,6 hPa 0,0 l/m 0 min 0 min 113 W/m 6,4 km/h (2 Bft) 100,00 %
03.07.2019 08:46 16,9 C 22,8 C 23,9 C 79 % 1024,6 hPa 0,0 l/m 0 min 0 min 117 W/m 6,4 km/h (2 Bft) 100,00 %
03.07.2019 08:48 17,0 C 21,7 C 23,3 C 78 % 1024,6 hPa 0,0 l/m 0 min 0 min 115 W/m 6,4 km/h (2 Bft) 97,87 %
03.07.2019 08:50 17,1 C 20,6 C 21,7 C 77 % 1024,5 hPa 0,0 l/m 0 min 0 min 116 W/m 9,7 km/h (2 Bft) 100,00 %
03.07.2019 08:52 17,2 C 20,0 C 21,1 C 77 % 1024,5 hPa 0,0 l/m 0 min 0 min 119 W/m 6,4 km/h (2 Bft) 100,00 %
03.07.2019 08:54 17,3 C 21,1 C 22,2 C 77 % 1024,6 hPa 0,0 l/m 0 min 0 min 127 W/m 3,2 km/h (1 Bft) 100,00 %
03.07.2019 08:56 17,3 C 21,7 C 22,8 C 76 % 1024,6 hPa 0,0 l/m 0 min 0 min 128 W/m 6,4 km/h (2 Bft) 97,83 %
03.07.2019 08:58 17,4 C 22,2 C 23,3 C 75 % 1024,5 hPa 0,0 l/m 0 min 0 min 129 W/m 3,2 km/h (1 Bft) 97,87 %
03.07.2019 09:00 17,5 C 21,7 C 23,3 C 75 % 1024,6 hPa 0,0 l/m 0 min 0 min 119 W/m 6,4 km/h (2 Bft) 93,62 %
03.07.2019 09:02 17,6 C 21,7 C 22,8 C 75 % 1024,7 hPa 0,0 l/m 0 min 0 min 130 W/m 6,4 km/h (2 Bft) 93,62 %
03.07.2019 09:04 17,7 C 22,2 C 23,3 C 74 % 1024,6 hPa 0,0 l/m 0 min 0 min 144 W/m 6,4 km/h (2 Bft) 95,74 %
03.07.2019 09:06 17,8 C 23,3 C 25,0 C 74 % 1024,6 hPa 0,0 l/m 0 min 0 min 195 W/m 6,4 km/h (2 Bft) 97,87 %
03.07.2019 09:08 17,9 C 23,9 C 25,6 C 74 % 1024,6 hPa 0,0 l/m 0 min 0 min 232 W/m 9,7 km/h (2 Bft) 95,65 %
03.07.2019 09:10 18,0 C 23,9 C 26,1 C 74 % 1024,6 hPa 0,0 l/m 2 min 0 min 263 W/m 6,4 km/h (2 Bft) 93,62 %
03.07.2019 09:12 18,2 C 25,0 C 26,7 C 74 % 1024,6 hPa 0,0 l/m 2 min 0 min 302 W/m 9,7 km/h (2 Bft) 93,62 %
03.07.2019 09:14 18,3 C 25,6 C 27,2 C 74 % 1024,6 hPa 0,0 l/m 2 min 0 min 360 W/m 6,4 km/h (2 Bft) 97,87 %
03.07.2019 09:16 18,5 C 25,0 C 27,2 C 72 % 1024,7 hPa 0,0 l/m 2 min 0 min 400 W/m 9,7 km/h (2 Bft) 93,62 %
03.07.2019 09:18 18,7 C 25,0 C 27,2 C 72 % 1024,7 hPa 0,0 l/m 2 min 0 min 436 W/m 6,4 km/h (2 Bft) 95,65 %
03.07.2019 09:20 18,8 C 25,0 C 27,8 C 71 % 1024,7 hPa 0,0 l/m 2 min 0 min 466 W/m 9,7 km/h (2 Bft) 95,74 %
03.07.2019 09:22 18,9 C 25,0 C 27,2 C 70 % 1024,7 hPa 0,0 l/m 2 min 0 min 483 W/m 9,7 km/h (2 Bft) 95,74 %
03.07.2019 09:24 19,0 C 23,9 C 26,1 C 70 % 1024,7 hPa 0,0 l/m 2 min 0 min 520 W/m 6,4 km/h (2 Bft) 97,87 %
03.07.2019 09:26 19,1 C 22,8 C 24,4 C 69 % 1024,7 hPa 0,0 l/m 0 min 0 min 246 W/m 3,2 km/h (1 Bft) 97,87 %
03.07.2019 09:28 19,2 C 23,9 C 25,0 C 69 % 1024,7 hPa 0,0 l/m 2 min 0 min 435 W/m 3,2 km/h (1 Bft) 95,74 %
03.07.2019 09:30 19,2 C 24,4 C 26,1 C 70 % 1024,7 hPa 0,0 l/m 2 min 0 min 550 W/m 3,2 km/h (1 Bft) 95,65 %
03.07.2019 09:32 19,3 C 25,6 C 27,2 C 68 % 1024,7 hPa 0,0 l/m 2 min 0 min 564 W/m 6,4 km/h (2 Bft) 95,74 %
03.07.2019 09:34 19,4 C 26,7 C 28,3 C 69 % 1024,8 hPa 0,0 l/m 2 min 0 min 577 W/m 6,4 km/h (2 Bft) 97,87 %
03.07.2019 09:36 19,5 C 24,4 C 25,6 C 67 % 1024,8 hPa 0,0 l/m 2 min 0 min 582 W/m 6,4 km/h (2 Bft) 100,00 %
03.07.2019 09:38 19,6 C 25,6 C 26,1 C 67 % 1024,7 hPa 0,0 l/m 2 min 0 min 588 W/m 6,4 km/h (2 Bft) 91,49 %
03.07.2019 09:40 19,6 C 25,6 C 26,1 C 68 % 1024,8 hPa 0,0 l/m 2 min 0 min 606 W/m 6,4 km/h (2 Bft) 95,74 %
03.07.2019 09:42 19,7 C 24,4 C 25,6 C 67 % 1024,8 hPa 0,0 l/m 0 min 0 min 129 W/m 6,4 km/h (2 Bft) 95,65 %
03.07.2019 09:44 19,7 C 23,3 C 25,0 C 65 % 1024,8 hPa 0,0 l/m 0 min 0 min 107 W/m 9,7 km/h (2 Bft) 95,74 %
03.07.2019 09:46 19,8 C 25,6 C 26,7 C 66 % 1024,9 hPa 0,0 l/m 2 min 0 min 549 W/m 6,4 km/h (2 Bft) 95,74 %
03.07.2019 09:48 19,8 C 25,6 C 27,2 C 64 % 1024,8 hPa 0,0 l/m 2 min 0 min 658 W/m 6,4 km/h (2 Bft) 93,62 %
03.07.2019 09:50 19,9 C 27,2 C 28,3 C 63 % 1024,7 hPa 0,0 l/m 2 min 0 min 664 W/m 6,4 km/h (2 Bft) 95,74 %
03.07.2019 09:52 20,0 C 26,1 C 27,8 C 64 % 1024,7 hPa 0,0 l/m 2 min 0 min 667 W/m 6,4 km/h (2 Bft) 95,74 %
03.07.2019 09:54 20,1 C 26,1 C 27,8 C 63 % 1024,7 hPa 0,0 l/m 2 min 0 min 671 W/m 22,5 km/h (4 Bft) 95,65 %
03.07.2019 09:56 20,2 C 26,7 C 27,8 C 62 % 1024,8 hPa 0,0 l/m 2 min 0 min 701 W/m 9,7 km/h (2 Bft) 95,74 %
03.07.2019 09:58 20,3 C 24,4 C 25,6 C 61 % 1024,7 hPa 0,0 l/m 2 min 0 min 482 W/m 6,4 km/h (2 Bft) 95,74 %
03.07.2019 10:00 20,3 C 23,3 C 24,4 C 61 % 1024,8 hPa 0,0 l/m 0 min 0 min 142 W/m 6,4 km/h (2 Bft) 95,74 %
03.07.2019 10:02 20,2 C 21,7 C 22,2 C 61 % 1024,9 hPa 0,0 l/m 0 min 0 min 144 W/m 6,4 km/h (2 Bft) 95,74 %
03.07.2019 10:04 20,1 C 21,1 C 21,7 C 61 % 1024,9 hPa 0,0 l/m 0 min 0 min 142 W/m 3,2 km/h (1 Bft) 95,74 %
03.07.2019 10:06 20,1 C 20,6 C 20,6 C 61 % 1024,9 hPa 0,0 l/m 0 min 0 min 157 W/m 6,4 km/h (2 Bft) 93,48 %
03.07.2019 10:08 20,1 C 21,7 C 22,2 C 62 % 1024,8 hPa 0,0 l/m 0 min 0 min 195 W/m 9,7 km/h (2 Bft) 95,74 %
03.07.2019 10:10 20,0 C 25,0 C 25,6 C 62 % 1024,8 hPa 0,0 l/m 2 min 0 min 707 W/m 6,4 km/h (2 Bft) 93,62 %
03.07.2019 10:12 20,1 C 26,7 C 27,8 C 63 % 1024,8 hPa 0,0 l/m 2 min 0 min 826 W/m 3,2 km/h (1 Bft) 91,49 %
03.07.2019 10:14 20,2 C 25,6 C 26,1 C 62 % 1024,9 hPa 0,0 l/m 2 min 0 min 667 W/m 9,7 km/h (2 Bft) 95,74 %
03.07.2019 10:16 20,3 C 25,6 C 26,1 C 63 % 1024,8 hPa 0,0 l/m 0 min 0 min 255 W/m 3,2 km/h (1 Bft) 95,65 %
03.07.2019 10:18 20,4 C 25,6 C 26,1 C 62 % 1024,9 hPa 0,0 l/m 2 min 0 min 427 W/m 9,7 km/h (2 Bft) 95,74 %
03.07.2019 10:20 20,5 C 26,1 C 26,7 C 62 % 1024,9 hPa 0,0 l/m 2 min 0 min 330 W/m 9,7 km/h (2 Bft) 95,74 %
03.07.2019 10:22 20,6 C 26,7 C 27,8 C 62 % 1024,8 hPa 0,0 l/m 2 min 0 min 714 W/m 9,7 km/h (2 Bft) 95,74 %
03.07.2019 10:24 20,7 C 23,9 C 25,0 C 61 % 1024,8 hPa 0,0 l/m 2 min 0 min 441 W/m 12,9 km/h (3 Bft) 95,74 %
03.07.2019 10:26 20,6 C 22,2 C 22,8 C 60 % 1024,8 hPa 0,0 l/m 0 min 0 min 164 W/m 9,7 km/h (2 Bft) 95,74 %
03.07.2019 10:28 20,6 C 21,1 C 21,7 C 61 % 1024,8 hPa 0,0 l/m 0 min 0 min 159 W/m 3,2 km/h (1 Bft) 95,65 %
03.07.2019 10:30 20,5 C 23,3 C 23,3 C 61 % 1024,8 hPa 0,0 l/m 0 min 0 min 291 W/m 6,4 km/h (2 Bft) 97,87 %
03.07.2019 10:32 20,5 C 25,6 C 26,7 C 61 % 1024,9 hPa 0,0 l/m 2 min 0 min 841 W/m 6,4 km/h (2 Bft) 95,74 %
03.07.2019 10:34 20,6 C 27,2 C 27,2 C 59 % 1024,8 hPa 0,0 l/m 2 min 0 min 888 W/m 9,7 km/h (2 Bft) 97,87 %
03.07.2019 10:36 20,6 C 25,0 C 25,6 C 60 % 1024,9 hPa 0,0 l/m 2 min 0 min 696 W/m 6,4 km/h (2 Bft) 97,87 %
03.07.2019 10:38 20,6 C 23,3 C 23,9 C 60 % 1024,9 hPa 0,0 l/m 0 min 0 min 217 W/m 6,4 km/h (2 Bft) 97,87 %
03.07.2019 10:40 20,6 C 21,7 C 22,8 C 60 % 1024,9 hPa 0,0 l/m 0 min 0 min 195 W/m 12,9 km/h (3 Bft) 97,83 %
03.07.2019 10:42 20,6 C 21,1 C 21,7 C 61 % 1024,9 hPa 0,0 l/m 0 min 0 min 178 W/m 9,7 km/h (2 Bft) 95,74 %
03.07.2019 10:44 20,4 C 20,6 C 21,1 C 62 % 1025,0 hPa 0,0 l/m 0 min 0 min 163 W/m 9,7 km/h (2 Bft) 97,87 %
03.07.2019 10:46 20,3 C 20,0 C 20,6 C 63 % 1025,0 hPa 0,0 l/m 0 min 0 min 161 W/m 6,4 km/h (2 Bft) 100,00 %
03.07.2019 10:48 20,2 C 19,4 C 20,0 C 62 % 1025,0 hPa 0,0 l/m 0 min 0 min 157 W/m 12,9 km/h (3 Bft) 97,87 %
03.07.2019 10:50 20,1 C 19,4 C 20,0 C 62 % 1025,1 hPa 0,0 l/m 0 min 0 min 151 W/m 12,9 km/h (3 Bft) 97,87 %
03.07.2019 10:52 19,9 C 19,4 C 20,0 C 63 % 1025,0 hPa 0,0 l/m 0 min 0 min 160 W/m 9,7 km/h (2 Bft) 97,83 %
03.07.2019 10:54 19,8 C 21,7 C 21,7 C 62 % 1025,1 hPa 0,0 l/m 0 min 0 min 186 W/m 6,4 km/h (2 Bft) 97,87 %
03.07.2019 10:56 19,8 C 24,4 C 25,0 C 61 % 1025,0 hPa 0,0 l/m 2 min 0 min 740 W/m 12,9 km/h (3 Bft) 97,87 %
03.07.2019 10:58 19,8 C 26,1 C 26,1 C 60 % 1025,0 hPa 0,0 l/m 2 min 0 min 885 W/m 6,4 km/h (2 Bft) 95,74 %
03.07.2019 11:00 19,9 C 27,8 C 28,9 C 62 % 1024,9 hPa 0,0 l/m 2 min 0 min 893 W/m 16,1 km/h (3 Bft) 100,00 %
03.07.2019 11:02 20,1 C 27,8 C 30,0 C 60 % 1024,9 hPa 0,0 l/m 2 min 0 min 910 W/m 9,7 km/h (2 Bft) 100,00 %
03.07.2019 11:04 20,3 C 28,3 C 30,0 C 60 % 1024,9 hPa 0,0 l/m 2 min 0 min 946 W/m 12,9 km/h (3 Bft) 97,83 %
03.07.2019 11:06 20,5 C 27,2 C 27,8 C 59 % 1024,9 hPa 0,0 l/m 2 min 0 min 827 W/m 9,7 km/h (2 Bft) 100,00 %
03.07.2019 11:08 20,5 C 25,0 C 25,6 C 57 % 1024,9 hPa 0,0 l/m 0 min 0 min 322 W/m 9,7 km/h (2 Bft) 100,00 %
03.07.2019 11:10 20,6 C 23,9 C 24,4 C 60 % 1024,9 hPa 0,0 l/m 0 min 0 min 269 W/m 6,4 km/h (2 Bft) 100,00 %
03.07.2019 11:12 20,7 C 22,8 C 23,3 C 59 % 1024,9 hPa 0,0 l/m 0 min 0 min 238 W/m 16,1 km/h (3 Bft) 97,87 %
03.07.2019 11:14 20,7 C 22,2 C 22,2 C 60 % 1024,9 hPa 0,0 l/m 0 min 0 min 233 W/m 3,2 km/h (1 Bft) 100,00 %
03.07.2019 11:16 20,6 C 21,7 C 22,2 C 60 % 1024,9 hPa 0,0 l/m 0 min 0 min 225 W/m 6,4 km/h (2 Bft) 100,00 %
03.07.2019 11:18 20,6 C 21,1 C 21,7 C 60 % 1025,0 hPa 0,0 l/m 0 min 0 min 197 W/m 6,4 km/h (2 Bft) 100,00 %
03.07.2019 11:20 20,6 C 21,1 C 21,1 C 60 % 1024,9 hPa 0,0 l/m 0 min 0 min 182 W/m 6,4 km/h (2 Bft) 97,87 %
03.07.2019 11:22 20,5 C 20,6 C 20,6 C 60 % 1025,0 hPa 0,0 l/m 0 min 0 min 178 W/m 6,4 km/h (2 Bft) 95,74 %
03.07.2019 11:24 20,4 C 20,6 C 20,6 C 59 % 1024,9 hPa 0,0 l/m 0 min 0 min 179 W/m 6,4 km/h (2 Bft) 95,74 %
03.07.2019 11:26 20,3 C 20,6 C 20,6 C 59 % 1025,0 hPa 0,0 l/m 0 min 0 min 182 W/m 3,2 km/h (1 Bft) 100,00 %
03.07.2019 11:28 20,2 C 20,6 C 20,6 C 59 % 1025,0 hPa 0,0 l/m 0 min 0 min 194 W/m 6,4 km/h (2 Bft) 97,87 %
03.07.2019 11:30 20,2 C 21,1 C 21,7 C 60 % 1025,1 hPa 0,0 l/m 0 min 0 min 197 W/m 12,9 km/h (3 Bft) 97,87 %
03.07.2019 11:32 20,1 C 21,1 C 21,1 C 59 % 1025,0 hPa 0,0 l/m 0 min 0 min 195 W/m 6,4 km/h (2 Bft) 97,87 %
03.07.2019 11:34 20,1 C 20,6 C 20,6 C 60 % 1025,0 hPa 0,0 l/m 0 min 0 min 203 W/m 9,7 km/h (2 Bft) 97,87 %
03.07.2019 11:36 20,1 C 20,6 C 20,6 C 62 % 1024,9 hPa 0,0 l/m 0 min 0 min 230 W/m 6,4 km/h (2 Bft) 95,74 %
03.07.2019 11:38 20,1 C 22,2 C 21,7 C 63 % 1025,0 hPa 0,0 l/m 0 min 0 min 273 W/m 6,4 km/h (2 Bft) 97,83 %
03.07.2019 11:40 20,1 C 25,6 C 26,1 C 63 % 1025,0 hPa 0,0 l/m 2 min 0 min 741 W/m 12,9 km/h (3 Bft) 97,87 %
03.07.2019 11:42 20,3 C 25,6 C 26,1 C 62 % 1025,1 hPa 0,0 l/m 2 min 0 min 1060 W/m 9,7 km/h (2 Bft) 97,87 %
03.07.2019 11:44 20,4 C 24,4 C 24,4 C 61 % 1025,1 hPa 0,0 l/m 2 min 0 min 396 W/m 6,4 km/h (2 Bft) 97,87 %
03.07.2019 11:46 20,5 C 23,9 C 23,9 C 60 % 1025,1 hPa 0,0 l/m 0 min 0 min 304 W/m 6,4 km/h (2 Bft) 97,87 %
03.07.2019 11:48 20,5 C 25,0 C 25,0 C 59 % 1025,1 hPa 0,0 l/m 0 min 0 min 307 W/m 12,9 km/h (3 Bft) 97,87 %
03.07.2019 11:50 20,6 C 27,2 C 27,8 C 59 % 1025,1 hPa 0,0 l/m 2 min 0 min 895 W/m 9,7 km/h (2 Bft) 97,83 %
03.07.2019 11:52 20,8 C 29,4 C 30,0 C 59 % 1025,1 hPa 0,0 l/m 2 min 0 min 951 W/m 6,4 km/h (2 Bft) 97,87 %
03.07.2019 11:54 20,9 C 27,2 C 27,8 C 57 % 1025,1 hPa 0,0 l/m 2 min 0 min 919 W/m 6,4 km/h (2 Bft) 95,74 %
03.07.2019 11:56 21,0 C 25,6 C 25,6 C 59 % 1025,1 hPa 0,0 l/m 2 min 0 min 680 W/m 6,4 km/h (2 Bft) 97,87 %
03.07.2019 11:58 21,0 C 25,6 C 25,6 C 59 % 1025,1 hPa 0,0 l/m 0 min 0 min 325 W/m 6,4 km/h (2 Bft) 97,87 %
03.07.2019 12:00 20,9 C 25,6 C 25,0 C 57 % 1025,0 hPa 0,0 l/m 0 min 0 min 325 W/m 9,7 km/h (2 Bft) 97,87 %
03.07.2019 12:02 20,9 C 26,7 C 26,7 C 59 % 1025,1 hPa 0,0 l/m 2 min 0 min 876 W/m 6,4 km/h (2 Bft) 97,83 %
03.07.2019 12:04 21,0 C 25,6 C 25,6 C 60 % 1025,1 hPa 0,0 l/m 2 min 0 min 533 W/m 12,9 km/h (3 Bft) 97,87 %
03.07.2019 12:08 21,2 C 27,2 C 27,2 C 58 % 1025,1 hPa 0,0 l/m 0 min 0 min 332 W/m 9,7 km/h (2 Bft) 100,00 %
03.07.2019 12:10 21,3 C 27,2 C 27,2 C 58 % 1025,1 hPa 0,0 l/m 0 min 0 min 362 W/m 12,9 km/h (3 Bft) 100,00 %
03.07.2019 12:12 21,5 C 28,9 C 28,9 C 57 % 1025,1 hPa 0,0 l/m 2 min 0 min 872 W/m 9,7 km/h (2 Bft) 97,87 %
03.07.2019 12:14 21,7 C 30,0 C 30,0 C 57 % 1025,1 hPa 0,0 l/m 2 min 0 min 1039 W/m 9,7 km/h (2 Bft) 97,83 %
03.07.2019 12:16 21,9 C 28,9 C 30,0 C 54 % 1025,1 hPa 0,0 l/m 2 min 0 min 1051 W/m 19,3 km/h (3 Bft) 100,00 %
03.07.2019 12:18 22,1 C 30,6 C 31,1 C 56 % 1025,1 hPa 0,0 l/m 2 min 0 min 1021 W/m 6,4 km/h (2 Bft) 97,87 %
03.07.2019 12:20 22,4 C 32,2 C 32,8 C 56 % 1025,1 hPa 0,0 l/m 2 min 0 min 1014 W/m 12,9 km/h (3 Bft) 100,00 %
03.07.2019 12:22 22,7 C 32,2 C 32,8 C 55 % 1025,1 hPa 0,0 l/m 2 min 0 min 1014 W/m 12,9 km/h (3 Bft) 100,00 %
03.07.2019 12:24 22,9 C 32,8 C 33,9 C 55 % 1025,1 hPa 0,0 l/m 2 min 0 min 1032 W/m 6,4 km/h (2 Bft) 100,00 %
03.07.2019 12:26 23,1 C 30,6 C 32,8 C 52 % 1025,1 hPa 0,0 l/m 2 min 0 min 1040 W/m 6,4 km/h (2 Bft) 100,00 %
03.07.2019 12:28 23,2 C 31,7 C 32,8 C 51 % 1025,0 hPa 0,0 l/m 2 min 0 min 1081 W/m 6,4 km/h (2 Bft) 100,00 %
03.07.2019 12:30 23,4 C 31,7 C 33,3 C 53 % 1025,0 hPa 0,0 l/m 2 min 0 min 1116 W/m 12,9 km/h (3 Bft) 100,00 %
03.07.2019 12:32 23,5 C 28,3 C 29,4 C 52 % 1025,1 hPa 0,0 l/m 2 min 0 min 1027 W/m 12,9 km/h (3 Bft) 97,87 %
03.07.2019 12:34 23,4 C 25,6 C 26,7 C 51 % 1025,1 hPa 0,0 l/m 0 min 0 min 256 W/m 12,9 km/h (3 Bft) 100,00 %
03.07.2019 12:36 23,2 C 23,9 C 25,0 C 49 % 1025,1 hPa 0,0 l/m 0 min 0 min 266 W/m 6,4 km/h (2 Bft) 100,00 %
03.07.2019 12:38 23,1 C 23,3 C 24,4 C 51 % 1025,1 hPa 0,0 l/m 0 min 0 min 287 W/m 6,4 km/h (2 Bft) 100,00 %
03.07.2019 12:40 22,9 C 23,3 C 24,4 C 50 % 1025,0 hPa 0,0 l/m 0 min 0 min 316 W/m 6,4 km/h (2 Bft) 100,00 %
03.07.2019 12:42 22,7 C 23,3 C 23,3 C 50 % 1025,0 hPa 0,0 l/m 0 min 0 min 309 W/m 6,4 km/h (2 Bft) 100,00 %
03.07.2019 12:44 22,6 C 22,8 C 22,8 C 50 % 1025,0 hPa 0,0 l/m 0 min 0 min 279 W/m 9,7 km/h (2 Bft) 97,87 %
03.07.2019 12:46 22,4 C 25,0 C 25,6 C 51 % 1024,9 hPa 0,0 l/m 0 min 0 min 283 W/m 6,4 km/h (2 Bft) 97,87 %
03.07.2019 12:48 22,4 C 27,8 C 28,3 C 50 % 1024,9 hPa 0,0 l/m 2 min 0 min 955 W/m 12,9 km/h (3 Bft) 95,65 %
03.07.2019 12:50 22,4 C 28,3 C 30,0 C 50 % 1024,9 hPa 0,0 l/m 2 min 0 min 1099 W/m 16,1 km/h (3 Bft) 97,87 %
03.07.2019 12:52 22,5 C 30,6 C 32,2 C 54 % 1024,9 hPa 0,0 l/m 2 min 0 min 1106 W/m 19,3 km/h (3 Bft) 97,87 %
03.07.2019 12:54 22,8 C 31,7 C 33,3 C 54 % 1025,0 hPa 0,0 l/m 2 min 0 min 1123 W/m 9,7 km/h (2 Bft) 97,87 %
03.07.2019 12:56 23,0 C 29,4 C 31,1 C 53 % 1025,0 hPa 0,0 l/m 2 min 0 min 1125 W/m 12,9 km/h (3 Bft) 97,87 %
03.07.2019 12:58 23,2 C 27,8 C 28,9 C 51 % 1025,0 hPa 0,0 l/m 2 min 0 min 1125 W/m 6,4 km/h (2 Bft) 97,87 %
03.07.2019 13:00 23,2 C 28,3 C 30,0 C 49 % 1024,8 hPa 0,0 l/m 2 min 0 min 1125 W/m 9,7 km/h (2 Bft) 95,65 %
03.07.2019 13:02 23,3 C 29,4 C 31,1 C 49 % 1024,8 hPa 0,0 l/m 2 min 0 min 1110 W/m 9,7 km/h (2 Bft) 97,87 %
03.07.2019 13:04 23,4 C 30,0 C 31,7 C 52 % 1024,8 hPa 0,0 l/m 2 min 0 min 1133 W/m 6,4 km/h (2 Bft) 97,87 %
03.07.2019 13:06 23,6 C 30,6 C 32,2 C 53 % 1024,8 hPa 0,0 l/m 2 min 0 min 1136 W/m 9,7 km/h (2 Bft) 97,87 %
03.07.2019 13:08 23,7 C 27,8 C 28,9 C 52 % 1024,9 hPa 0,0 l/m 2 min 0 min 992 W/m 9,7 km/h (2 Bft) 95,74 %
03.07.2019 13:10 23,7 C 26,7 C 27,8 C 51 % 1024,9 hPa 0,0 l/m 0 min 0 min 274 W/m 6,4 km/h (2 Bft) 97,87 %
03.07.2019 13:12 23,8 C 28,9 C 30,6 C 51 % 1024,9 hPa 0,0 l/m 2 min 0 min 678 W/m 9,7 km/h (2 Bft) 97,83 %
03.07.2019 13:14 23,8 C 30,6 C 32,8 C 50 % 1024,9 hPa 0,0 l/m 2 min 0 min 1159 W/m 6,4 km/h (2 Bft) 97,87 %
03.07.2019 13:16 24,1 C 31,7 C 33,3 C 50 % 1024,9 hPa 0,0 l/m 2 min 0 min 1165 W/m 9,7 km/h (2 Bft) 97,87 %
03.07.2019 13:18 24,2 C 31,7 C 33,3 C 49 % 1025,0 hPa 0,0 l/m 2 min 0 min 1169 W/m 12,9 km/h (3 Bft) 97,87 %
03.07.2019 13:20 24,4 C 32,2 C 34,4 C 49 % 1024,9 hPa 0,0 l/m 2 min 0 min 1165 W/m 9,7 km/h (2 Bft) 97,87 %
03.07.2019 13:22 24,6 C 32,8 C 35,6 C 50 % 1024,9 hPa 0,0 l/m 2 min 0 min 1175 W/m 16,1 km/h (3 Bft) 97,87 %
03.07.2019 13:24 24,8 C 32,8 C 35,0 C 51 % 1025,0 hPa 0,0 l/m 2 min 0 min 1184 W/m 16,1 km/h (3 Bft) 97,83 %
03.07.2019 13:26 25,1 C 32,8 C 35,0 C 50 % 1025,0 hPa 0,0 l/m 2 min 0 min 1184 W/m 12,9 km/h (3 Bft) 97,87 %
03.07.2019 13:28 25,1 C 30,0 C 31,7 C 48 % 1025,0 hPa 0,0 l/m 2 min 0 min 1178 W/m 9,7 km/h (2 Bft) 97,87 %
03.07.2019 13:30 25,1 C 27,2 C 28,3 C 48 % 1025,0 hPa 0,0 l/m 2 min 0 min 1123 W/m 9,7 km/h (2 Bft) 95,74 %
03.07.2019 13:32 24,9 C 25,6 C 26,7 C 49 % 1025,1 hPa 0,0 l/m 0 min 0 min 296 W/m 9,7 km/h (2 Bft) 95,74 %
03.07.2019 13:34 24,7 C 24,4 C 25,6 C 48 % 1025,1 hPa 0,0 l/m 0 min 0 min 297 W/m 9,7 km/h (2 Bft) 97,83 %
03.07.2019 13:36 24,5 C 23,9 C 25,0 C 48 % 1025,1 hPa 0,0 l/m 0 min 0 min 312 W/m 12,9 km/h (3 Bft) 97,87 %
03.07.2019 13:38 24,3 C 23,9 C 24,4 C 48 % 1025,0 hPa 0,0 l/m 0 min 0 min 314 W/m 12,9 km/h (3 Bft) 95,74 %
03.07.2019 13:40 24,1 C 23,3 C 23,9 C 48 % 1025,1 hPa 0,0 l/m 0 min 0 min 327 W/m 9,7 km/h (2 Bft) 95,74 %
03.07.2019 13:42 23,8 C 23,3 C 24,4 C 48 % 1025,1 hPa 0,0 l/m 0 min 0 min 376 W/m 12,9 km/h (3 Bft) 95,74 %
03.07.2019 13:44 23,6 C 23,3 C 23,9 C 49 % 1025,0 hPa 0,0 l/m 0 min 0 min 346 W/m 12,9 km/h (3 Bft) 100,00 %
03.07.2019 13:46 23,4 C 23,3 C 23,9 C 51 % 1025,0 hPa 0,0 l/m 0 min 0 min 372 W/m 19,3 km/h (3 Bft) 100,00 %
03.07.2019 13:48 23,2 C 23,9 C 24,4 C 50 % 1025,0 hPa 0,0 l/m 0 min 0 min 412 W/m 16,1 km/h (3 Bft) 95,65 %
03.07.2019 13:50 23,1 C 25,6 C 26,1 C 50 % 1025,0 hPa 0,0 l/m 2 min 0 min 455 W/m 6,4 km/h (2 Bft) 97,87 %
03.07.2019 13:52 23,1 C 27,2 C 28,3 C 52 % 1025,0 hPa 0,0 l/m 2 min 0 min 584 W/m 9,7 km/h (2 Bft) 97,87 %
03.07.2019 13:54 23,2 C 27,2 C 29,4 C 49 % 1025,0 hPa 0,0 l/m 2 min 0 min 1076 W/m 12,9 km/h (3 Bft) 97,87 %
03.07.2019 13:56 23,3 C 29,4 C 31,1 C 52 % 1025,0 hPa 0,0 l/m 2 min 0 min 1076 W/m 9,7 km/h (2 Bft) 95,74 %
03.07.2019 13:58 23,4 C 30,0 C 32,2 C 52 % 1024,9 hPa 0,0 l/m 2 min 0 min 1111 W/m 9,7 km/h (2 Bft) 93,48 %
03.07.2019 14:00 23,7 C 30,6 C 33,3 C 53 % 1024,9 hPa 0,0 l/m 2 min 0 min 1104 W/m 12,9 km/h (3 Bft) 95,74 %
03.07.2019 14:02 23,9 C 30,0 C 33,3 C 51 % 1025,0 hPa 0,0 l/m 2 min 0 min 1103 W/m 9,7 km/h (2 Bft) 95,74 %
03.07.2019 14:04 24,1 C 30,0 C 33,3 C 48 % 1025,0 hPa 0,0 l/m 2 min 0 min 1148 W/m 6,4 km/h (2 Bft) 95,74 %
03.07.2019 14:06 24,2 C 30,0 C 33,3 C 48 % 1025,0 hPa 0,0 l/m 2 min 0 min 1184 W/m 12,9 km/h (3 Bft) 95,74 %
03.07.2019 14:08 24,4 C 31,7 C 34,4 C 49 % 1025,0 hPa 0,0 l/m 2 min 0 min 1185 W/m 3,2 km/h (1 Bft) 95,74 %
03.07.2019 14:10 24,6 C 31,7 C 34,4 C 48 % 1025,0 hPa 0,0 l/m 2 min 0 min 1163 W/m 12,9 km/h (3 Bft) 95,65 %
03.07.2019 14:12 24,8 C 30,6 C 33,9 C 47 % 1024,9 hPa 0,0 l/m 2 min 0 min 1134 W/m 9,7 km/h (2 Bft) 93,62 %
03.07.2019 14:14 24,9 C 30,0 C 32,2 C 48 % 1025,0 hPa 0,0 l/m 2 min 0 min 1187 W/m 6,4 km/h (2 Bft) 95,74 %
03.07.2019 14:16 25,0 C 28,3 C 30,0 C 48 % 1025,0 hPa 0,0 l/m 2 min 0 min 544 W/m 6,4 km/h (2 Bft) 95,74 %
03.07.2019 14:18 25,0 C 28,3 C 30,0 C 45 % 1024,9 hPa 0,0 l/m 0 min 0 min 415 W/m 16,1 km/h (3 Bft) 95,74 %
03.07.2019 14:20 25,1 C 30,6 C 32,8 C 49 % 1025,0 hPa 0,0 l/m 2 min 0 min 650 W/m 12,9 km/h (3 Bft) 95,74 %
03.07.2019 14:22 25,2 C 31,1 C 33,3 C 47 % 1024,9 hPa 0,0 l/m 2 min 0 min 858 W/m 6,4 km/h (2 Bft) 93,48 %
03.07.2019 14:24 25,3 C 29,4 C 32,2 C 45 % 1024,9 hPa 0,0 l/m 2 min 0 min 899 W/m 6,4 km/h (2 Bft) 93,62 %
03.07.2019 14:26 25,2 C 27,2 C 28,9 C 46 % 1024,8 hPa 0,0 l/m 2 min 0 min 559 W/m 19,3 km/h (3 Bft) 93,62 %
03.07.2019 14:28 25,1 C 25,6 C 27,2 C 47 % 1025,0 hPa 0,0 l/m 2 min 0 min 437 W/m 12,9 km/h (3 Bft) 95,74 %
03.07.2019 14:30 24,8 C 25,0 C 26,1 C 47 % 1024,8 hPa 0,0 l/m 0 min 0 min 369 W/m 12,9 km/h (3 Bft) 91,49 %
03.07.2019 14:32 24,6 C 24,4 C 25,0 C 46 % 1024,9 hPa 0,0 l/m 0 min 0 min 376 W/m 16,1 km/h (3 Bft) 95,65 %
03.07.2019 14:34 24,3 C 23,9 C 25,0 C 47 % 1024,9 hPa 0,0 l/m 0 min 0 min 396 W/m 12,9 km/h (3 Bft) 95,74 %
03.07.2019 14:36 24,0 C 23,9 C 24,4 C 48 % 1024,9 hPa 0,0 l/m 0 min 0 min 328 W/m 12,9 km/h (3 Bft) 95,74 %
03.07.2019 14:38 23,8 C 23,9 C 23,9 C 48 % 1024,8 hPa 0,0 l/m 0 min 0 min 319 W/m 19,3 km/h (3 Bft) 97,87 %
03.07.2019 14:40 23,6 C 23,3 C 23,9 C 49 % 1024,8 hPa 0,0 l/m 0 min 0 min 338 W/m 9,7 km/h (2 Bft) 97,87 %
03.07.2019 14:42 23,4 C 23,3 C 23,9 C 48 % 1024,7 hPa 0,0 l/m 0 min 0 min 356 W/m 12,9 km/h (3 Bft) 97,87 %
03.07.2019 14:44 23,3 C 23,3 C 23,9 C 50 % 1024,9 hPa 0,0 l/m 0 min 0 min 367 W/m 9,7 km/h (2 Bft) 97,83 %
03.07.2019 14:46 23,1 C 23,3 C 23,3 C 49 % 1024,8 hPa 0,0 l/m 0 min 0 min 370 W/m 16,1 km/h (3 Bft) 93,62 %
03.07.2019 14:48 22,9 C 23,3 C 23,3 C 50 % 1024,9 hPa 0,0 l/m 0 min 0 min 371 W/m 9,7 km/h (2 Bft) 97,87 %
03.07.2019 14:50 22,8 C 23,9 C 23,9 C 50 % 1024,9 hPa 0,0 l/m 0 min 0 min 400 W/m 6,4 km/h (2 Bft) 97,87 %
03.07.2019 14:52 22,8 C 23,9 C 23,9 C 50 % 1024,8 hPa 0,0 l/m 2 min 0 min 433 W/m 9,7 km/h (2 Bft) 100,00 %
03.07.2019 14:54 22,7 C 24,4 C 23,9 C 50 % 1024,7 hPa 0,0 l/m 2 min 0 min 413 W/m 6,4 km/h (2 Bft) 100,00 %
03.07.2019 14:56 22,7 C 26,1 C 26,1 C 51 % 1024,7 hPa 0,0 l/m 2 min 0 min 575 W/m 19,3 km/h (3 Bft) 100,00 %
03.07.2019 14:58 22,9 C 27,8 C 27,2 C 52 % 1024,7 hPa 0,0 l/m 2 min 0 min 1154 W/m 9,7 km/h (2 Bft) 97,87 %
03.07.2019 15:00 23,1 C 28,3 C 26,7 C 51 % 1024,7 hPa 0,0 l/m 2 min 0 min 833 W/m 9,7 km/h (2 Bft) 100,00 %
03.07.2019 15:02 23,4 C 28,9 C 26,7 C 51 % 1024,7 hPa 0,0 l/m 2 min 0 min 831 W/m 6,4 km/h (2 Bft) 100,00 %
03.07.2019 15:04 23,6 C 28,3 C 26,1 C 48 % 1024,7 hPa 0,0 l/m 2 min 0 min 829 W/m 6,4 km/h (2 Bft) 100,00 %
03.07.2019 15:06 23,7 C 27,8 C 25,6 C 49 % 1024,7 hPa 0,0 l/m 2 min 0 min 713 W/m 9,7 km/h (2 Bft) 100,00 %
03.07.2019 15:08 23,8 C 27,2 C 25,0 C 50 % 1024,7 hPa 0,0 l/m 2 min 0 min 457 W/m 9,7 km/h (2 Bft) 100,00 %
03.07.2019 15:10 23,9 C 26,7 C 25,0 C 49 % 1024,6 hPa 0,0 l/m 0 min 0 min 378 W/m 3,2 km/h (1 Bft) 100,00 %
03.07.2019 15:12 23,9 C 26,1 C 24,4 C 48 % 1024,6 hPa 0,0 l/m 2 min 0 min 413 W/m 9,7 km/h (2 Bft) 100,00 %
03.07.2019 15:14 23,9 C 26,1 C 24,4 C 49 % 1024,7 hPa 0,0 l/m 2 min 0 min 448 W/m 6,4 km/h (2 Bft) 100,00 %
03.07.2019 15:16 23,9 C 26,7 C 24,4 C 47 % 1024,5 hPa 0,0 l/m 2 min 0 min 503 W/m 6,4 km/h (2 Bft) 100,00 %
03.07.2019 15:18 23,9 C 26,7 C 24,4 C 47 % 1024,5 hPa 0,0 l/m 2 min 0 min 1106 W/m 9,7 km/h (2 Bft) 100,00 %
03.07.2019 15:20 23,9 C 25,6 C 24,4 C 48 % 1024,5 hPa 0,0 l/m 2 min 0 min 802 W/m 3,2 km/h (1 Bft) 97,83 %
03.07.2019 15:22 23,9 C 25,0 C 23,9 C 47 % 1024,5 hPa 0,0 l/m 0 min 0 min 300 W/m 9,7 km/h (2 Bft) 100,00 %
03.07.2019 15:24 23,8 C 24,4 C 23,9 C 48 % 1024,6 hPa 0,0 l/m 0 min 0 min 323 W/m 6,4 km/h (2 Bft) 100,00 %
03.07.2019 15:26 23,7 C 25,6 C 23,9 C 47 % 1024,6 hPa 0,0 l/m 0 min 0 min 338 W/m 6,4 km/h (2 Bft) 100,00 %
03.07.2019 15:28 23,7 C 26,1 C 23,9 C 45 % 1024,6 hPa 0,0 l/m 0 min 0 min 338 W/m 9,7 km/h (2 Bft) 100,00 %
03.07.2019 15:30 23,7 C 26,1 C 23,9 C 46 % 1024,6 hPa 0,0 l/m 2 min 0 min 530 W/m 16,1 km/h (3 Bft) 100,00 %
03.07.2019 15:32 23,7 C 25,6 C 23,9 C 43 % 1024,5 hPa 0,0 l/m 2 min 0 min 1065 W/m 22,5 km/h (4 Bft) 100,00 %
03.07.2019 15:34 23,7 C 27,2 C 24,4 C 45 % 1024,6 hPa 0,0 l/m 2 min 0 min 1078 W/m 9,7 km/h (2 Bft) 100,00 %
03.07.2019 15:36 23,8 C 28,3 C 25,6 C 47 % 1024,5 hPa 0,0 l/m 2 min 0 min 1098 W/m 6,4 km/h (2 Bft) 100,00 %
03.07.2019 15:38 23,9 C 27,8 C 25,0 C 44 % 1024,5 hPa 0,0 l/m 2 min 0 min 792 W/m 16,1 km/h (3 Bft) 100,00 %
03.07.2019 15:40 24,2 C 28,9 C 25,6 C 49 % 1024,5 hPa 0,0 l/m 2 min 0 min 790 W/m 6,4 km/h (2 Bft) 97,87 %
03.07.2019 15:42 24,4 C 27,8 C 25,6 C 48 % 1024,3 hPa 0,0 l/m 2 min 0 min 898 W/m 9,7 km/h (2 Bft) 100,00 %
03.07.2019 15:44 24,4 C 26,1 C 25,0 C 46 % 1024,5 hPa 0,0 l/m 0 min 0 min 306 W/m 9,7 km/h (2 Bft) 100,00 %
03.07.2019 15:46 24,4 C 25,0 C 24,4 C 45 % 1024,5 hPa 0,0 l/m 0 min 0 min 313 W/m 19,3 km/h (3 Bft) 97,87 %
03.07.2019 15:48 24,2 C 25,0 C 24,4 C 46 % 1024,5 hPa 0,0 l/m 2 min 0 min 402 W/m 9,7 km/h (2 Bft) 95,74 %
03.07.2019 15:50 24,2 C 25,0 C 24,4 C 47 % 1024,4 hPa 0,0 l/m 2 min 0 min 392 W/m 12,9 km/h (3 Bft) 97,87 %
03.07.2019 15:52 24,1 C 26,1 C 24,4 C 47 % 1024,4 hPa 0,0 l/m 0 min 0 min 364 W/m 9,7 km/h (2 Bft) 100,00 %
03.07.2019 15:54 24,2 C 26,7 C 25,0 C 47 % 1024,4 hPa 0,0 l/m 2 min 0 min 553 W/m 16,1 km/h (3 Bft) 97,83 %
03.07.2019 15:56 24,3 C 27,2 C 25,0 C 47 % 1024,4 hPa 0,0 l/m 2 min 0 min 990 W/m 9,7 km/h (2 Bft) 97,87 %
03.07.2019 15:58 24,4 C 27,2 C 25,6 C 45 % 1024,4 hPa 0,0 l/m 2 min 0 min 978 W/m 12,9 km/h (3 Bft) 97,87 %
03.07.2019 16:00 24,6 C 27,2 C 26,1 C 45 % 1024,4 hPa 0,0 l/m 2 min 0 min 920 W/m 12,9 km/h (3 Bft) 100,00 %
03.07.2019 16:02 24,7 C 27,2 C 25,6 C 45 % 1024,4 hPa 0,0 l/m 2 min 0 min 871 W/m 6,4 km/h (2 Bft) 97,87 %
03.07.2019 16:04 24,9 C 27,8 C 26,1 C 45 % 1024,3 hPa 0,0 l/m 2 min 0 min 998 W/m 16,1 km/h (3 Bft) 97,87 %
03.07.2019 16:06 25,1 C 27,2 C 26,1 C 44 % 1024,4 hPa 0,0 l/m 2 min 0 min 1013 W/m 16,1 km/h (3 Bft) 97,83 %
03.07.2019 16:08 25,1 C 26,7 C 26,1 C 44 % 1024,4 hPa 0,0 l/m 2 min 0 min 1019 W/m 16,1 km/h (3 Bft) 97,87 %
03.07.2019 16:10 25,1 C 26,7 C 26,1 C 45 % 1024,3 hPa 0,0 l/m 2 min 0 min 923 W/m 12,9 km/h (3 Bft) 97,87 %
03.07.2019 16:12 25,3 C 27,2 C 26,1 C 45 % 1024,4 hPa 0,0 l/m 2 min 0 min 923 W/m 6,4 km/h (2 Bft) 97,87 %
03.07.2019 16:14 25,4 C 27,2 C 26,1 C 47 % 1024,3 hPa 0,0 l/m 2 min 0 min 956 W/m 6,4 km/h (2 Bft) 97,87 %
03.07.2019 16:16 25,5 C 26,7 C 26,7 C 45 % 1024,4 hPa 0,0 l/m 2 min 0 min 940 W/m 9,7 km/h (2 Bft) 95,74 %
03.07.2019 16:18 25,5 C 26,1 C 26,1 C 44 % 1024,3 hPa 0,0 l/m 2 min 0 min 929 W/m 9,7 km/h (2 Bft) 97,83 %
03.07.2019 16:20 25,5 C 25,6 C 26,1 C 44 % 1024,3 hPa 0,0 l/m 2 min 0 min 913 W/m 12,9 km/h (3 Bft) 97,87 %
03.07.2019 16:22 25,5 C 25,6 C 26,1 C 46 % 1024,4 hPa 0,0 l/m 2 min 0 min 922 W/m 9,7 km/h (2 Bft) 97,87 %
03.07.2019 16:24 25,5 C 25,0 C 25,6 C 43 % 1024,3 hPa 0,0 l/m 2 min 0 min 940 W/m 9,7 km/h (2 Bft) 97,87 %
03.07.2019 16:26 25,5 C 25,0 C 26,1 C 43 % 1024,4 hPa 0,0 l/m 2 min 0 min 952 W/m 12,9 km/h (3 Bft) 97,87 %
03.07.2019 16:28 25,4 C 24,4 C 25,6 C 43 % 1024,4 hPa 0,0 l/m 2 min 0 min 514 W/m 9,7 km/h (2 Bft) 97,87 %
03.07.2019 16:30 25,2 C 24,4 C 26,1 C 43 % 1024,3 hPa 0,0 l/m 2 min 0 min 500 W/m 12,9 km/h (3 Bft) 93,48 %
03.07.2019 16:32 25,1 C 25,0 C 27,2 C 44 % 1024,4 hPa 0,0 l/m 2 min 0 min 907 W/m 12,9 km/h (3 Bft) 95,74 %
03.07.2019 16:34 25,2 C 25,0 C 28,3 C 45 % 1024,4 hPa 0,0 l/m 2 min 0 min 843 W/m 9,7 km/h (2 Bft) 95,74 %
03.07.2019 16:36 25,2 C 25,0 C 27,8 C 43 % 1024,3 hPa 0,0 l/m 2 min 0 min 816 W/m 9,7 km/h (2 Bft) 93,62 %
03.07.2019 16:38 25,2 C 25,0 C 27,8 C 44 % 1024,3 hPa 0,0 l/m 2 min 0 min 827 W/m 6,4 km/h (2 Bft) 95,74 %
03.07.2019 16:40 25,1 C 24,4 C 26,7 C 42 % 1024,3 hPa 0,0 l/m 2 min 0 min 556 W/m 16,1 km/h (3 Bft) 95,74 %
03.07.2019 16:42 25,1 C 23,9 C 26,1 C 43 % 1024,2 hPa 0,0 l/m 2 min 0 min 488 W/m 6,4 km/h (2 Bft) 95,65 %
03.07.2019 16:44 25,0 C 23,9 C 26,1 C 43 % 1024,2 hPa 0,0 l/m 2 min 0 min 657 W/m 9,7 km/h (2 Bft) 93,62 %
03.07.2019 16:46 25,0 C 24,4 C 25,6 C 43 % 1024,1 hPa 0,0 l/m 2 min 0 min 776 W/m 9,7 km/h (2 Bft) 95,74 %
03.07.2019 16:48 25,1 C 25,0 C 25,6 C 44 % 1024,1 hPa 0,0 l/m 2 min 0 min 768 W/m 12,9 km/h (3 Bft) 91,49 %
03.07.2019 16:50 25,2 C 25,6 C 25,6 C 44 % 1024,1 hPa 0,0 l/m 2 min 0 min 763 W/m 6,4 km/h (2 Bft) 93,62 %
03.07.2019 16:52 25,3 C 25,6 C 25,0 C 42 % 1024,2 hPa 0,0 l/m 2 min 0 min 760 W/m 12,9 km/h (3 Bft) 95,65 %
03.07.2019 16:54 25,4 C 25,6 C 25,0 C 42 % 1024,2 hPa 0,0 l/m 2 min 0 min 761 W/m 3,2 km/h (1 Bft) 95,74 %
03.07.2019 16:56 25,6 C 25,6 C 25,6 C 42 % 1024,1 hPa 0,0 l/m 2 min 0 min 757 W/m 3,2 km/h (1 Bft) 95,74 %
03.07.2019 16:58 25,6 C 25,0 C 25,6 C 42 % 1024,1 hPa 0,0 l/m 2 min 0 min 751 W/m 12,9 km/h (3 Bft) 97,87 %
03.07.2019 17:00 25,6 C 25,0 C 25,6 C 43 % 1024,2 hPa 0,0 l/m 2 min 0 min 743 W/m 12,9 km/h (3 Bft) 97,87 %
03.07.2019 17:02 25,7 C 25,6 C 25,6 C 44 % 1024,2 hPa 0,0 l/m 2 min 0 min 739 W/m 6,4 km/h (2 Bft) 95,74 %
03.07.2019 17:04 25,8 C 25,6 C 25,6 C 42 % 1024,2 hPa 0,0 l/m 2 min 0 min 729 W/m 9,7 km/h (2 Bft) 93,48 %
03.07.2019 17:06 25,8 C 25,0 C 25,0 C 42 % 1024,2 hPa 0,0 l/m 2 min 0 min 725 W/m 12,9 km/h (3 Bft) 93,62 %
03.07.2019 17:08 25,8 C 25,0 C 25,0 C 43 % 1024,2 hPa 0,0 l/m 2 min 0 min 716 W/m 9,7 km/h (2 Bft) 97,87 %
03.07.2019 17:10 25,8 C 25,6 C 25,0 C 43 % 1024,2 hPa 0,0 l/m 2 min 0 min 710 W/m 6,4 km/h (2 Bft) 97,87 %
03.07.2019 17:12 25,9 C 25,0 C 25,6 C 42 % 1024,3 hPa 0,0 l/m 2 min 0 min 712 W/m 12,9 km/h (3 Bft) 95,74 %
03.07.2019 17:14 25,8 C 25,0 C 25,6 C 41 % 1024,1 hPa 0,0 l/m 2 min 0 min 714 W/m 16,1 km/h (3 Bft) 95,74 %
03.07.2019 17:16 25,8 C 25,0 C 26,1 C 41 % 1024,2 hPa 0,0 l/m 2 min 0 min 713 W/m 12,9 km/h (3 Bft) 95,65 %
03.07.2019 17:18 25,8 C 25,0 C 26,7 C 43 % 1024,1 hPa 0,0 l/m 2 min 0 min 702 W/m 6,4 km/h (2 Bft) 97,87 %
03.07.2019 17:20 25,8 C 24,4 C 26,1 C 42 % 1024,2 hPa 0,0 l/m 2 min 0 min 659 W/m 9,7 km/h (2 Bft) 95,74 %
03.07.2019 17:22 25,7 C 24,4 C 25,6 C 42 % 1024,1 hPa 0,0 l/m 2 min 0 min 677 W/m 16,1 km/h (3 Bft) 97,87 %
03.07.2019 17:24 25,6 C 24,4 C 25,6 C 43 % 1024,1 hPa 0,0 l/m 2 min 0 min 721 W/m 9,7 km/h (2 Bft) 97,87 %
03.07.2019 17:26 25,6 C 25,0 C 25,6 C 44 % 1024,2 hPa 0,0 l/m 2 min 0 min 724 W/m 9,7 km/h (2 Bft) 97,87 %
03.07.2019 17:28 25,6 C 24,4 C 25,0 C 42 % 1024,2 hPa 0,0 l/m 2 min 0 min 736 W/m 9,7 km/h (2 Bft) 97,83 %
03.07.2019 17:30 25,4 C 23,9 C 24,4 C 42 % 1024,2 hPa 0,0 l/m 0 min 0 min 271 W/m 19,3 km/h (3 Bft) 97,87 %
03.07.2019 17:32 25,3 C 23,3 C 23,9 C 43 % 1024,3 hPa 0,0 l/m 0 min 0 min 226 W/m 9,7 km/h (2 Bft) 95,74 %
03.07.2019 17:34 25,1 C 23,3 C 23,9 C 43 % 1024,2 hPa 0,0 l/m 0 min 0 min 281 W/m 25,7 km/h (4 Bft) 97,87 %
03.07.2019 17:36 24,9 C 23,3 C 23,9 C 44 % 1024,3 hPa 0,0 l/m 2 min 0 min 295 W/m 9,7 km/h (2 Bft) 97,87 %
03.07.2019 17:38 24,7 C 22,8 C 23,3 C 44 % 1024,2 hPa 0,0 l/m 2 min 0 min 295 W/m 6,4 km/h (2 Bft) 97,87 %
03.07.2019 17:40 24,5 C 22,8 C 23,3 C 44 % 1024,3 hPa 0,0 l/m 2 min 0 min 295 W/m 9,7 km/h (2 Bft) 97,83 %
03.07.2019 17:42 24,4 C 23,3 C 23,3 C 44 % 1024,3 hPa 0,0 l/m 2 min 0 min 458 W/m 12,9 km/h (3 Bft) 97,87 %
03.07.2019 17:44 24,3 C 23,3 C 23,9 C 44 % 1024,3 hPa 0,0 l/m 2 min 0 min 616 W/m 9,7 km/h (2 Bft) 95,74 %
03.07.2019 17:46 24,3 C 23,9 C 23,9 C 45 % 1024,3 hPa 0,0 l/m 2 min 0 min 598 W/m 6,4 km/h (2 Bft) 93,62 %
03.07.2019 17:48 24,4 C 23,9 C 23,9 C 45 % 1024,3 hPa 0,0 l/m 2 min 0 min 590 W/m 9,7 km/h (2 Bft) 97,87 %
03.07.2019 17:50 24,4 C 23,9 C 23,9 C 45 % 1024,3 hPa 0,0 l/m 2 min 0 min 584 W/m 6,4 km/h (2 Bft) 97,87 %
03.07.2019 17:52 24,4 C 23,9 C 23,9 C 45 % 1024,2 hPa 0,0 l/m 2 min 0 min 579 W/m 9,7 km/h (2 Bft) 97,83 %
03.07.2019 17:54 24,5 C 23,9 C 23,9 C 45 % 1024,2 hPa 0,0 l/m 2 min 0 min 571 W/m 12,9 km/h (3 Bft) 97,87 %
03.07.2019 17:56 24,5 C 23,9 C 23,9 C 45 % 1024,1 hPa 0,0 l/m 2 min 0 min 564 W/m 16,1 km/h (3 Bft) 95,74 %
03.07.2019 17:58 24,5 C 23,9 C 24,4 C 45 % 1024,2 hPa 0,0 l/m 2 min 0 min 560 W/m 16,1 km/h (3 Bft) 97,87 %
03.07.2019 18:00 24,6 C 23,9 C 25,0 C 44 % 1024,1 hPa 0,0 l/m 2 min 0 min 556 W/m 9,7 km/h (2 Bft) 97,87 %
03.07.2019 18:02 24,6 C 23,9 C 25,6 C 44 % 1024,2 hPa 0,0 l/m 2 min 0 min 555 W/m 22,5 km/h (4 Bft) 100,00 %
03.07.2019 18:04 24,6 C 23,9 C 25,6 C 44 % 1024,3 hPa 0,0 l/m 2 min 0 min 554 W/m 16,1 km/h (3 Bft) 100,00 %
03.07.2019 18:08 24,6 C 23,3 C 25,6 C 43 % 1024,2 hPa 0,0 l/m 4 min 0 min 553 W/m 9,7 km/h (2 Bft) 100,00 %
03.07.2019 18:10 24,6 C 23,9 C 26,1 C 44 % 1024,2 hPa 0,0 l/m 2 min 0 min 544 W/m 25,7 km/h (4 Bft) 100,00 %
03.07.2019 18:12 24,5 C 23,3 C 25,6 C 44 % 1024,2 hPa 0,0 l/m 2 min 0 min 533 W/m 9,7 km/h (2 Bft) 100,00 %
03.07.2019 18:14 24,4 C 23,3 C 25,0 C 44 % 1024,2 hPa 0,0 l/m 2 min 0 min 525 W/m 9,7 km/h (2 Bft) 100,00 %
03.07.2019 18:16 24,3 C 23,3 C 24,4 C 45 % 1024,3 hPa 0,0 l/m 2 min 0 min 518 W/m 6,4 km/h (2 Bft) 100,00 %
03.07.2019 18:18 24,3 C 22,8 C 23,3 C 44 % 1024,1 hPa 0,0 l/m 2 min 0 min 515 W/m 9,7 km/h (2 Bft) 100,00 %
03.07.2019 18:20 24,2 C 22,8 C 22,8 C 44 % 1024,2 hPa 0,0 l/m 2 min 0 min 507 W/m 9,7 km/h (2 Bft) 100,00 %
03.07.2019 18:22 24,1 C 22,8 C 23,3 C 44 % 1024,2 hPa 0,0 l/m 2 min 0 min 501 W/m 12,9 km/h (3 Bft) 100,00 %
03.07.2019 18:24 24,0 C 23,3 C 23,3 C 45 % 1024,2 hPa 0,0 l/m 2 min 0 min 494 W/m 19,3 km/h (3 Bft) 100,00 %
03.07.2019 18:26 23,9 C 22,8 C 22,8 C 45 % 1024,3 hPa 0,0 l/m 2 min 0 min 486 W/m 12,9 km/h (3 Bft) 100,00 %
03.07.2019 18:28 23,9 C 23,3 C 22,8 C 45 % 1024,3 hPa 0,0 l/m 2 min 0 min 475 W/m 12,9 km/h (3 Bft) 100,00 %
03.07.2019 18:30 23,9 C 22,8 C 22,8 C 45 % 1024,2 hPa 0,0 l/m 2 min 0 min 462 W/m 9,7 km/h (2 Bft) 100,00 %
03.07.2019 18:32 23,9 C 22,8 C 22,8 C 46 % 1024,2 hPa 0,0 l/m 2 min 0 min 389 W/m 6,4 km/h (2 Bft) 100,00 %
03.07.2019 18:34 23,8 C 23,3 C 22,8 C 45 % 1024,2 hPa 0,0 l/m 2 min 0 min 441 W/m 6,4 km/h (2 Bft) 100,00 %
03.07.2019 18:36 23,9 C 23,3 C 22,8 C 44 % 1024,3 hPa 0,0 l/m 2 min 0 min 447 W/m 12,9 km/h (3 Bft) 100,00 %
03.07.2019 18:38 23,8 C 23,3 C 22,2 C 46 % 1024,2 hPa 0,0 l/m 2 min 0 min 444 W/m 9,7 km/h (2 Bft) 100,00 %
03.07.2019 18:40 23,8 C 22,8 C 22,2 C 44 % 1024,2 hPa 0,0 l/m 2 min 0 min 438 W/m 12,9 km/h (3 Bft) 100,00 %
03.07.2019 18:42 23,8 C 23,3 C 22,2 C 46 % 1024,2 hPa 0,0 l/m 2 min 0 min 433 W/m 6,4 km/h (2 Bft) 100,00 %
03.07.2019 18:44 23,8 C 22,8 C 22,2 C 45 % 1024,2 hPa 0,0 l/m 2 min 0 min 427 W/m 9,7 km/h (2 Bft) 100,00 %
03.07.2019 18:46 23,7 C 22,2 C 21,7 C 45 % 1024,1 hPa 0,0 l/m 2 min 0 min 417 W/m 12,9 km/h (3 Bft) 100,00 %
03.07.2019 18:48 23,6 C 22,2 C 21,7 C 45 % 1024,1 hPa 0,0 l/m 2 min 0 min 411 W/m 12,9 km/h (3 Bft) 97,87 %
03.07.2019 18:50 23,5 C 22,2 C 22,2 C 45 % 1024,2 hPa 0,0 l/m 2 min 0 min 404 W/m 19,3 km/h (3 Bft) 100,00 %
03.07.2019 18:52 23,4 C 22,2 C 23,3 C 46 % 1024,2 hPa 0,0 l/m 2 min 0 min 398 W/m 9,7 km/h (2 Bft) 97,87 %
03.07.2019 18:54 23,4 C 22,2 C 23,3 C 45 % 1024,2 hPa 0,0 l/m 2 min 0 min 394 W/m 9,7 km/h (2 Bft) 100,00 %
03.07.2019 18:56 23,3 C 22,2 C 23,3 C 45 % 1024,2 hPa 0,0 l/m 2 min 0 min 386 W/m 19,3 km/h (3 Bft) 97,87 %
03.07.2019 18:58 23,2 C 22,2 C 22,8 C 45 % 1024,2 hPa 0,0 l/m 2 min 0 min 379 W/m 6,4 km/h (2 Bft) 95,74 %
03.07.2019 19:00 23,2 C 22,2 C 21,7 C 45 % 1024,2 hPa 0,0 l/m 2 min 0 min 377 W/m 9,7 km/h (2 Bft) 95,74 %
03.07.2019 19:02 23,1 C 22,2 C 21,7 C 45 % 1024,2 hPa 0,0 l/m 2 min 0 min 369 W/m 12,9 km/h (3 Bft) 100,00 %
03.07.2019 19:04 23,1 C 22,2 C 21,1 C 45 % 1024,2 hPa 0,0 l/m 2 min 0 min 362 W/m 6,4 km/h (2 Bft) 97,87 %
03.07.2019 19:06 23,0 C 22,2 C 21,1 C 47 % 1024,2 hPa 0,0 l/m 2 min 0 min 357 W/m 6,4 km/h (2 Bft) 95,74 %
03.07.2019 19:08 22,9 C 22,2 C 21,1 C 46 % 1024,2 hPa 0,0 l/m 2 min 0 min 351 W/m 6,4 km/h (2 Bft) 97,87 %
03.07.2019 19:10 22,9 C 21,7 C 21,1 C 46 % 1024,1 hPa 0,0 l/m 2 min 0 min 344 W/m 9,7 km/h (2 Bft) 95,74 %
03.07.2019 19:12 22,9 C 21,7 C 21,1 C 47 % 1024,2 hPa 0,0 l/m 2 min 0 min 340 W/m 9,7 km/h (2 Bft) 97,83 %
03.07.2019 19:14 22,8 C 21,7 C 20,6 C 46 % 1024,2 hPa 0,0 l/m 2 min 0 min 334 W/m 12,9 km/h (3 Bft) 95,74 %
03.07.2019 19:16 22,7 C 21,7 C 20,6 C 46 % 1024,2 hPa 0,0 l/m 2 min 0 min 329 W/m 16,1 km/h (3 Bft) 97,87 %
03.07.2019 19:18 22,6 C 21,7 C 20,0 C 48 % 1024,1 hPa 0,0 l/m 2 min 0 min 324 W/m 6,4 km/h (2 Bft) 95,74 %
03.07.2019 19:20 22,6 C 21,1 C 20,0 C 49 % 1024,2 hPa 0,0 l/m 2 min 0 min 316 W/m 6,4 km/h (2 Bft) 95,74 %
03.07.2019 19:22 22,5 C 21,1 C 19,4 C 50 % 1024,2 hPa 0,0 l/m 2 min 0 min 310 W/m 6,4 km/h (2 Bft) 95,74 %
03.07.2019 19:24 22,3 C 20,6 C 18,9 C 50 % 1024,2 hPa 0,0 l/m 2 min 0 min 303 W/m 9,7 km/h (2 Bft) 93,48 %
03.07.2019 19:26 22,2 C 20,6 C 18,9 C 49 % 1024,2 hPa 0,0 l/m 2 min 0 min 297 W/m 9,7 km/h (2 Bft) 95,74 %
03.07.2019 19:28 22,0 C 20,6 C 18,9 C 49 % 1024,1 hPa 0,0 l/m 2 min 0 min 290 W/m 9,7 km/h (2 Bft) 97,87 %
03.07.2019 19:30 21,9 C 20,6 C 18,3 C 51 % 1024,2 hPa 0,0 l/m 2 min 0 min 285 W/m 6,4 km/h (2 Bft) 95,74 %
03.07.2019 19:32 21,7 C 20,6 C 18,3 C 51 % 1024,2 hPa 0,0 l/m 2 min 0 min 277 W/m 9,7 km/h (2 Bft) 95,74 %
03.07.2019 19:34 21,6 C 20,0 C 18,3 C 51 % 1024,2 hPa 0,0 l/m 2 min 0 min 180 W/m 9,7 km/h (2 Bft) 95,74 %
03.07.2019 19:36 21,5 C 20,0 C 18,3 C 51 % 1024,2 hPa 0,0 l/m 0 min 0 min 62 W/m 9,7 km/h (2 Bft) 95,65 %
03.07.2019 19:38 21,3 C 20,0 C 18,3 C 52 % 1024,2 hPa 0,0 l/m 0 min 0 min 58 W/m 12,9 km/h (3 Bft) 95,74 %
03.07.2019 19:40 21,2 C 19,4 C 18,3 C 52 % 1024,2 hPa 0,0 l/m 0 min 0 min 59 W/m 9,7 km/h (2 Bft) 97,87 %
03.07.2019 19:42 21,1 C 19,4 C 18,3 C 52 % 1024,1 hPa 0,0 l/m 0 min 0 min 112 W/m 6,4 km/h (2 Bft) 95,74 %
03.07.2019 19:44 20,9 C 18,9 C 18,3 C 53 % 1024,1 hPa 0,0 l/m 2 min 0 min 223 W/m 9,7 km/h (2 Bft) 93,62 %
03.07.2019 19:46 20,8 C 18,9 C 17,8 C 53 % 1024,1 hPa 0,0 l/m 2 min 0 min 228 W/m 9,7 km/h (2 Bft) 95,74 %
03.07.2019 19:48 20,7 C 18,9 C 17,8 C 53 % 1024,1 hPa 0,0 l/m 2 min 0 min 220 W/m 9,7 km/h (2 Bft) 97,83 %
03.07.2019 19:50 20,7 C 18,9 C 17,2 C 54 % 1024,0 hPa 0,0 l/m 2 min 0 min 187 W/m 6,4 km/h (2 Bft) 97,87 %
03.07.2019 19:52 20,5 C 18,9 C 17,2 C 53 % 1023,9 hPa 0,0 l/m 0 min 0 min 96 W/m 9,7 km/h (2 Bft) 95,74 %
03.07.2019 19:54 20,4 C 18,3 C 17,2 C 55 % 1024,0 hPa 0,0 l/m 0 min 0 min 51 W/m 6,4 km/h (2 Bft) 97,87 %
03.07.2019 19:56 20,3 C 18,3 C 17,2 C 53 % 1024,0 hPa 0,0 l/m 0 min 0 min 49 W/m 12,9 km/h (3 Bft) 97,87 %
03.07.2019 19:58 20,2 C 18,3 C 17,2 C 54 % 1024,0 hPa 0,0 l/m 0 min 0 min 47 W/m 6,4 km/h (2 Bft) 97,87 %
03.07.2019 20:00 20,2 C 18,9 C 17,8 C 53 % 1023,9 hPa 0,0 l/m 0 min 0 min 47 W/m 19,3 km/h (3 Bft) 93,48 %
03.07.2019 20:02 20,1 C 18,9 C 17,8 C 54 % 1023,9 hPa 0,0 l/m 0 min 0 min 46 W/m 6,4 km/h (2 Bft) 93,62 %
03.07.2019 20:04 20,0 C 18,9 C 17,8 C 54 % 1024,0 hPa 0,0 l/m 0 min 0 min 45 W/m 6,4 km/h (2 Bft) 97,87 %
03.07.2019 20:06 19,9 C 18,9 C 17,8 C 55 % 1024,0 hPa 0,0 l/m 0 min 0 min 44 W/m 12,9 km/h (3 Bft) 93,62 %
03.07.2019 20:08 19,9 C 18,3 C 17,2 C 55 % 1024,0 hPa 0,0 l/m 0 min 0 min 44 W/m 6,4 km/h (2 Bft) 95,74 %
03.07.2019 20:10 19,8 C 18,3 C 17,2 C 55 % 1024,0 hPa 0,0 l/m 0 min 0 min 42 W/m 9,7 km/h (2 Bft) 97,87 %
03.07.2019 20:12 19,7 C 18,3 C 17,2 C 55 % 1024,0 hPa 0,0 l/m 0 min 0 min 42 W/m 9,7 km/h (2 Bft) 100,00 %
03.07.2019 20:14 19,6 C 18,3 C 17,2 C 54 % 1024,0 hPa 0,0 l/m 0 min 0 min 41 W/m 16,1 km/h (3 Bft) 100,00 %
03.07.2019 20:16 19,6 C 18,3 C 17,2 C 54 % 1024,0 hPa 0,0 l/m 0 min 0 min 40 W/m 9,7 km/h (2 Bft) 100,00 %
03.07.2019 20:18 19,5 C 18,3 C 17,2 C 54 % 1024,0 hPa 0,0 l/m 0 min 0 min 40 W/m 9,7 km/h (2 Bft) 95,74 %
03.07.2019 20:20 19,4 C 18,3 C 17,2 C 54 % 1024,0 hPa 0,0 l/m 0 min 0 min 39 W/m 12,9 km/h (3 Bft) 97,87 %
03.07.2019 20:22 19,4 C 18,3 C 17,2 C 55 % 1024,0 hPa 0,0 l/m 0 min 0 min 39 W/m 9,7 km/h (2 Bft) 97,87 %
03.07.2019 20:24 19,4 C 18,3 C 17,2 C 55 % 1024,0 hPa 0,0 l/m 0 min 0 min 37 W/m 6,4 km/h (2 Bft) 97,83 %
03.07.2019 20:26 19,3 C 18,3 C 17,2 C 56 % 1024,0 hPa 0,0 l/m 0 min 0 min 36 W/m 6,4 km/h (2 Bft) 97,87 %
03.07.2019 20:28 19,3 C 17,8 C 17,2 C 56 % 1024,0 hPa 0,0 l/m 0 min 0 min 35 W/m 3,2 km/h (1 Bft) 97,87 %
03.07.2019 20:30 19,2 C 17,8 C 17,2 C 55 % 1024,0 hPa 0,0 l/m 0 min 0 min 33 W/m 16,1 km/h (3 Bft) 97,87 %
03.07.2019 20:32 19,2 C 17,8 C 17,2 C 56 % 1024,0 hPa 0,0 l/m 0 min 0 min 33 W/m 9,7 km/h (2 Bft) 95,74 %
03.07.2019 20:34 19,2 C 17,8 C 17,2 C 56 % 1024,1 hPa 0,0 l/m 0 min 0 min 32 W/m 9,7 km/h (2 Bft) 97,83 %
03.07.2019 20:36 19,1 C 17,8 C 17,2 C 55 % 1024,1 hPa 0,0 l/m 0 min 0 min 30 W/m 9,7 km/h (2 Bft) 97,87 %
03.07.2019 20:38 19,1 C 17,8 C 17,2 C 55 % 1024,0 hPa 0,0 l/m 0 min 0 min 30 W/m 6,4 km/h (2 Bft) 97,87 %
03.07.2019 20:40 19,1 C 17,8 C 17,2 C 55 % 1024,1 hPa 0,0 l/m 0 min 0 min 28 W/m 6,4 km/h (2 Bft) 97,87 %
03.07.2019 20:42 19,0 C 17,8 C 17,2 C 56 % 1024,1 hPa 0,0 l/m 0 min 0 min 28 W/m 6,4 km/h (2 Bft) 97,87 %
03.07.2019 20:44 19,0 C 17,8 C 17,2 C 55 % 1024,0 hPa 0,0 l/m 0 min 0 min 26 W/m 9,7 km/h (2 Bft) 97,87 %
03.07.2019 20:46 18,9 C 17,8 C 17,2 C 56 % 1024,0 hPa 0,0 l/m 0 min 0 min 26 W/m 16,1 km/h (3 Bft) 97,83 %
03.07.2019 20:48 18,9 C 17,8 C 17,2 C 56 % 1024,0 hPa 0,0 l/m 0 min 0 min 26 W/m 9,7 km/h (2 Bft) 97,87 %
03.07.2019 20:50 18,9 C 17,8 C 17,2 C 56 % 1024,1 hPa 0,0 l/m 0 min 0 min 25 W/m 9,7 km/h (2 Bft) 95,74 %
03.07.2019 20:52 18,8 C 17,8 C 17,2 C 56 % 1024,0 hPa 0,0 l/m 0 min 0 min 25 W/m 3,2 km/h (1 Bft) 97,87 %
03.07.2019 20:54 18,8 C 17,8 C 17,2 C 57 % 1024,1 hPa 0,0 l/m 0 min 0 min 23 W/m 9,7 km/h (2 Bft) 95,74 %
03.07.2019 20:56 18,8 C 17,8 C 17,2 C 56 % 1024,1 hPa 0,0 l/m 0 min 0 min 23 W/m 12,9 km/h (3 Bft) 95,74 %
03.07.2019 20:58 18,7 C 17,8 C 17,2 C 56 % 1024,0 hPa 0,0 l/m 0 min 0 min 21 W/m 12,9 km/h (3 Bft) 97,83 %
03.07.2019 21:00 18,7 C 17,2 C 16,7 C 55 % 1024,1 hPa 0,0 l/m 0 min 0 min 21 W/m 9,7 km/h (2 Bft) 95,74 %
03.07.2019 21:02 18,7 C 17,2 C 16,7 C 56 % 1024,1 hPa 0,0 l/m 0 min 0 min 20 W/m 6,4 km/h (2 Bft) 100,00 %
03.07.2019 21:04 18,7 C 17,2 C 16,7 C 56 % 1024,1 hPa 0,0 l/m 0 min 0 min 19 W/m 6,4 km/h (2 Bft) 97,14 %
03.07.2019 21:06 18,6 C 17,2 C 16,7 C 56 % 1024,1 hPa 0,0 l/m 0 min 0 min 19 W/m 3,2 km/h (1 Bft) 98,31 %
03.07.2019 21:08 18,6 C 17,2 C 16,7 C 56 % 1024,1 hPa 0,0 l/m 0 min 0 min 18 W/m 9,7 km/h (2 Bft) 100,00 %
03.07.2019 21:10 18,6 C 17,2 C 16,7 C 56 % 1024,1 hPa 0,0 l/m 0 min 0 min 18 W/m 6,4 km/h (2 Bft) 97,87 %
03.07.2019 21:12 18,5 C 17,2 C 16,7 C 57 % 1024,1 hPa 0,0 l/m 0 min 0 min 17 W/m 6,4 km/h (2 Bft) 100,00 %
03.07.2019 21:14 18,5 C 17,2 C 16,7 C 56 % 1024,1 hPa 0,0 l/m 0 min 0 min 16 W/m 9,7 km/h (2 Bft) 100,00 %
03.07.2019 21:16 18,4 C 17,2 C 16,7 C 57 % 1024,1 hPa 0,0 l/m 0 min 0 min 16 W/m 6,4 km/h (2 Bft) 100,00 %
03.07.2019 21:18 18,4 C 17,2 C 16,7 C 56 % 1024,1 hPa 0,0 l/m 0 min 0 min 14 W/m 9,7 km/h (2 Bft) 97,87 %
03.07.2019 21:20 18,4 C 16,7 C 16,7 C 57 % 1024,1 hPa 0,0 l/m 0 min 0 min 14 W/m 3,2 km/h (1 Bft) 97,14 %
03.07.2019 21:22 18,3 C 16,7 C 16,7 C 57 % 1024,1 hPa 0,0 l/m 0 min 0 min 14 W/m 3,2 km/h (1 Bft) 100,00 %
03.07.2019 21:24 18,3 C 16,7 C 16,7 C 57 % 1024,1 hPa 0,0 l/m 0 min 0 min 12 W/m 3,2 km/h (1 Bft) 97,14 %
03.07.2019 21:26 18,3 C 16,7 C 16,1 C 58 % 1024,2 hPa 0,0 l/m 0 min 0 min 12 W/m 6,4 km/h (2 Bft) 100,00 %
03.07.2019 21:28 18,3 C 16,7 C 16,1 C 57 % 1024,2 hPa 0,0 l/m 0 min 0 min 11 W/m 6,4 km/h (2 Bft) 100,00 %
03.07.2019 21:30 18,2 C 16,7 C 16,1 C 57 % 1024,2 hPa 0,0 l/m 0 min 0 min 11 W/m 6,4 km/h (2 Bft) 100,00 %
03.07.2019 21:32 18,2 C 16,7 C 16,1 C 58 % 1024,2 hPa 0,0 l/m 0 min 0 min 11 W/m 6,4 km/h (2 Bft) 100,00 %
03.07.2019 21:34 18,2 C 16,7 C 16,1 C 58 % 1024,2 hPa 0,0 l/m 0 min 0 min 9 W/m 9,7 km/h (2 Bft) 100,00 %
03.07.2019 21:36 18,1 C 16,7 C 16,1 C 57 % 1024,3 hPa 0,0 l/m 0 min 0 min 9 W/m 3,2 km/h (1 Bft) 100,00 %
03.07.2019 21:38 18,1 C 16,1 C 16,1 C 58 % 1024,2 hPa 0,0 l/m 0 min 0 min 7 W/m 9,7 km/h (2 Bft) 100,00 %
03.07.2019 21:40 18,0 C 16,1 C 16,1 C 58 % 1024,3 hPa 0,0 l/m 0 min 0 min 7 W/m 6,4 km/h (2 Bft) 97,87 %
03.07.2019 21:42 18,0 C 16,1 C 16,1 C 58 % 1024,4 hPa 0,0 l/m 0 min 0 min 7 W/m 6,4 km/h (2 Bft) 96,61 %
03.07.2019 21:44 17,9 C 16,1 C 16,1 C 58 % 1024,3 hPa 0,0 l/m 0 min 0 min 5 W/m 3,2 km/h (1 Bft) 100,00 %
03.07.2019 21:46 17,9 C 16,1 C 16,1 C 58 % 1024,4 hPa 0,0 l/m 0 min 0 min 5 W/m 6,4 km/h (2 Bft) 94,64 %
03.07.2019 21:48 17,8 C 16,1 C 16,1 C 58 % 1024,5 hPa 0,0 l/m 0 min 0 min 5 W/m 6,4 km/h (2 Bft) 97,37 %
03.07.2019 21:50 17,8 C 16,1 C 16,1 C 59 % 1024,6 hPa 0,0 l/m 0 min 0 min 2 W/m 9,7 km/h (2 Bft) 95,74 %
03.07.2019 21:52 17,7 C 16,1 C 15,6 C 58 % 1024,6 hPa 0,0 l/m 0 min 0 min 0 W/m 3,2 km/h (1 Bft) 97,96 %
03.07.2019 21:54 17,7 C 16,1 C 15,6 C 59 % 1024,6 hPa 0,0 l/m 0 min 0 min 0 W/m 3,2 km/h (1 Bft) 97,87 %
03.07.2019 21:56 17,7 C 16,1 C 15,6 C 59 % 1024,6 hPa 0,0 l/m 0 min 0 min 0 W/m 9,7 km/h (2 Bft) 97,83 %
03.07.2019 21:58 17,6 C 16,1 C 15,6 C 59 % 1024,6 hPa 0,0 l/m 0 min 0 min 0 W/m 6,4 km/h (2 Bft) 97,87 %
03.07.2019 22:00 17,6 C 15,6 C 15,6 C 59 % 1024,7 hPa 0,0 l/m 0 min 0 min 0 W/m 6,4 km/h (2 Bft) 97,87 %
03.07.2019 22:02 17,5 C 15,6 C 15,6 C 59 % 1024,7 hPa 0,0 l/m 0 min 0 min 0 W/m 6,4 km/h (2 Bft) 94,44 %
03.07.2019 22:04 17,5 C 15,6 C 15,6 C 59 % 1024,7 hPa 0,0 l/m 0 min 0 min 0 W/m 6,4 km/h (2 Bft) 97,37 %
03.07.2019 22:06 17,4 C 15,6 C 15,6 C 59 % 1024,8 hPa 0,0 l/m 0 min 0 min 0 W/m 6,4 km/h (2 Bft) 97,96 %
03.07.2019 22:08 17,4 C 15,6 C 15,6 C 60 % 1024,8 hPa 0,0 l/m 0 min 0 min 0 W/m 6,4 km/h (2 Bft) 97,83 %
03.07.2019 22:10 17,3 C 15,6 C 15,6 C 60 % 1024,8 hPa 0,0 l/m 0 min 0 min 0 W/m 3,2 km/h (1 Bft) 97,87 %
03.07.2019 22:12 17,3 C 15,6 C 15,6 C 60 % 1024,8 hPa 0,0 l/m 0 min 0 min 0 W/m 9,7 km/h (2 Bft) 97,87 %
03.07.2019 22:14 17,3 C 15,6 C 15,6 C 60 % 1024,8 hPa 0,0 l/m 0 min 0 min 0 W/m 9,7 km/h (2 Bft) 98,15 %
03.07.2019 22:16 17,2 C 15,6 C 15,6 C 61 % 1024,9 hPa 0,0 l/m 0 min 0 min 0 W/m 9,7 km/h (2 Bft) 97,37 %
03.07.2019 22:18 17,2 C 15,6 C 15,6 C 61 % 1024,9 hPa 0,0 l/m 0 min 0 min 0 W/m 6,4 km/h (2 Bft) 97,96 %
03.07.2019 22:20 17,2 C 15,6 C 15,6 C 61 % 1025,0 hPa 0,0 l/m 0 min 0 min 0 W/m 6,4 km/h (2 Bft) 95,65 %
03.07.2019 22:22 17,1 C 15,6 C 15,6 C 61 % 1024,9 hPa 0,0 l/m 0 min 0 min 0 W/m 16,1 km/h (3 Bft) 98,15 %
03.07.2019 22:24 17,1 C 15,6 C 15,6 C 62 % 1024,9 hPa 0,0 l/m 0 min 0 min 0 W/m 12,9 km/h (3 Bft) 97,87 %
03.07.2019 22:26 17,1 C 15,6 C 15,6 C 62 % 1024,9 hPa 0,0 l/m 0 min 0 min 0 W/m 12,9 km/h (3 Bft) 97,37 %
03.07.2019 22:28 17,0 C 15,6 C 15,6 C 62 % 1024,9 hPa 0,0 l/m 0 min 0 min 0 W/m 9,7 km/h (2 Bft) 97,87 %
03.07.2019 22:30 17,0 C 15,6 C 15,6 C 62 % 1024,9 hPa 0,0 l/m 0 min 0 min 0 W/m 9,7 km/h (2 Bft) 97,92 %
03.07.2019 22:32 16,9 C 15,6 C 15,6 C 62 % 1024,9 hPa 0,0 l/m 0 min 0 min 0 W/m 6,4 km/h (2 Bft) 100,00 %
03.07.2019 22:34 16,9 C 15,6 C 15,0 C 63 % 1024,9 hPa 0,0 l/m 0 min 0 min 0 W/m 6,4 km/h (2 Bft) 97,87 %
03.07.2019 22:36 16,9 C 15,6 C 15,0 C 63 % 1025,0 hPa 0,0 l/m 0 min 0 min 0 W/m 6,4 km/h (2 Bft) 98,15 %
03.07.2019 22:38 16,9 C 15,6 C 15,0 C 63 % 1025,0 hPa 0,0 l/m 0 min 0 min 0 W/m 3,2 km/h (1 Bft) 100,00 %
03.07.2019 22:40 16,8 C 15,6 C 15,0 C 63 % 1024,9 hPa 0,0 l/m 0 min 0 min 0 W/m 6,4 km/h (2 Bft) 100,00 %
03.07.2019 22:42 16,8 C 15,0 C 15,0 C 63 % 1024,9 hPa 0,0 l/m 0 min 0 min 0 W/m 9,7 km/h (2 Bft) 97,92 %
03.07.2019 22:44 16,8 C 15,0 C 15,0 C 63 % 1025,1 hPa 0,0 l/m 0 min 0 min 0 W/m 6,4 km/h (2 Bft) 100,00 %
03.07.2019 22:46 16,7 C 15,0 C 15,0 C 63 % 1025,0 hPa 0,0 l/m 0 min 0 min 0 W/m 6,4 km/h (2 Bft) 93,62 %
03.07.2019 22:48 16,7 C 15,0 C 15,0 C 63 % 1025,1 hPa 0,0 l/m 0 min 0 min 0 W/m 9,7 km/h (2 Bft) 94,44 %
03.07.2019 22:50 16,7 C 15,0 C 15,0 C 64 % 1025,1 hPa 0,0 l/m 0 min 0 min 0 W/m 6,4 km/h (2 Bft) 95,74 %
03.07.2019 22:52 16,6 C 15,0 C 15,0 C 64 % 1025,1 hPa 0,0 l/m 0 min 0 min 0 W/m 3,2 km/h (1 Bft) 97,87 %
03.07.2019 22:54 16,6 C 15,0 C 15,0 C 64 % 1025,1 hPa 0,0 l/m 0 min 0 min 0 W/m 6,4 km/h (2 Bft) 94,74 %
03.07.2019 22:56 16,6 C 15,0 C 15,0 C 64 % 1025,1 hPa 0,0 l/m 0 min 0 min 0 W/m 3,2 km/h (1 Bft) 93,75 %
03.07.2019 22:58 16,6 C 15,0 C 15,0 C 64 % 1025,1 hPa 0,0 l/m 0 min 0 min 0 W/m 3,2 km/h (1 Bft) 95,74 %
03.07.2019 23:00 16,5 C 15,0 C 15,0 C 64 % 1025,1 hPa 0,0 l/m 0 min 0 min 0 W/m 3,2 km/h (1 Bft) 96,30 %
03.07.2019 23:02 16,5 C 15,0 C 15,0 C 64 % 1025,2 hPa 0,0 l/m 0 min 0 min 0 W/m 6,4 km/h (2 Bft) 94,74 %
03.07.2019 23:04 16,4 C 14,4 C 14,4 C 64 % 1025,2 hPa 0,0 l/m 0 min 0 min 0 W/m 3,2 km/h (1 Bft) 95,92 %
03.07.2019 23:06 16,4 C 14,4 C 14,4 C 64 % 1025,2 hPa 0,0 l/m 0 min 0 min 0 W/m 6,4 km/h (2 Bft) 95,65 %
03.07.2019 23:08 16,4 C 15,0 C 14,4 C 64 % 1025,2 hPa 0,0 l/m 0 min 0 min 0 W/m 6,4 km/h (2 Bft) 95,74 %
03.07.2019 23:10 16,3 C 14,4 C 14,4 C 64 % 1025,2 hPa 0,0 l/m 0 min 0 min 0 W/m 6,4 km/h (2 Bft) 95,74 %
03.07.2019 23:12 16,3 C 14,4 C 14,4 C 65 % 1025,3 hPa 0,0 l/m 0 min 0 min 0 W/m 3,2 km/h (1 Bft) 93,62 %
03.07.2019 23:14 16,3 C 14,4 C 14,4 C 65 % 1025,2 hPa 0,0 l/m 0 min 0 min 0 W/m 3,2 km/h (1 Bft) 95,74 %
03.07.2019 23:16 16,2 C 14,4 C 14,4 C 65 % 1025,3 hPa 0,0 l/m 0 min 0 min 0 W/m 6,4 km/h (2 Bft) 96,30 %
03.07.2019 23:18 16,2 C 14,4 C 14,4 C 65 % 1025,2 hPa 0,0 l/m 0 min 0 min 0 W/m 3,2 km/h (1 Bft) 94,74 %
03.07.2019 23:20 16,2 C 14,4 C 14,4 C 65 % 1025,3 hPa 0,0 l/m 0 min 0 min 0 W/m 3,2 km/h (1 Bft) 95,83 %
03.07.2019 23:22 16,1 C 14,4 C 14,4 C 65 % 1025,2 hPa 0,0 l/m 0 min 0 min 0 W/m 9,7 km/h (2 Bft) 95,74 %
03.07.2019 23:24 16,1 C 14,4 C 14,4 C 65 % 1025,3 hPa 0,0 l/m 0 min 0 min 0 W/m 3,2 km/h (1 Bft) 93,62 %
03.07.2019 23:26 16,1 C 14,4 C 14,4 C 65 % 1025,3 hPa 0,0 l/m 0 min 0 min 0 W/m 3,2 km/h (1 Bft) 97,87 %
03.07.2019 23:28 16,0 C 14,4 C 14,4 C 65 % 1025,3 hPa 0,0 l/m 0 min 0 min 0 W/m 3,2 km/h (1 Bft) 97,87 %
03.07.2019 23:30 16,0 C 14,4 C 14,4 C 65 % 1025,4 hPa 0,0 l/m 0 min 0 min 0 W/m 6,4 km/h (2 Bft) 98,11 %
03.07.2019 23:32 15,9 C 14,4 C 14,4 C 65 % 1025,5 hPa 0,0 l/m 0 min 0 min 0 W/m 6,4 km/h (2 Bft) 94,74 %
03.07.2019 23:34 15,9 C 14,4 C 14,4 C 65 % 1025,5 hPa 0,0 l/m 0 min 0 min 0 W/m 6,4 km/h (2 Bft) 97,87 %
03.07.2019 23:36 15,9 C 14,4 C 13,9 C 66 % 1025,5 hPa 0,0 l/m 0 min 0 min 0 W/m 3,2 km/h (1 Bft) 97,96 %
03.07.2019 23:38 15,8 C 14,4 C 13,9 C 66 % 1025,5 hPa 0,0 l/m 0 min 0 min 0 W/m 6,4 km/h (2 Bft) 97,87 %
03.07.2019 23:40 15,8 C 14,4 C 14,4 C 66 % 1025,5 hPa 0,0 l/m 0 min 0 min 0 W/m 6,4 km/h (2 Bft) 97,83 %
03.07.2019 23:42 15,8 C 14,4 C 14,4 C 66 % 1025,5 hPa 0,0 l/m 0 min 0 min 0 W/m 3,2 km/h (1 Bft) 95,74 %
03.07.2019 23:44 15,7 C 14,4 C 14,4 C 66 % 1025,5 hPa 0,0 l/m 0 min 0 min 0 W/m 6,4 km/h (2 Bft) 98,15 %
03.07.2019 23:46 15,7 C 14,4 C 13,9 C 66 % 1025,6 hPa 0,0 l/m 0 min 0 min 0 W/m 6,4 km/h (2 Bft) 97,87 %
03.07.2019 23:48 15,7 C 14,4 C 14,4 C 66 % 1025,6 hPa 0,0 l/m 0 min 0 min 0 W/m 6,4 km/h (2 Bft) 94,74 %
03.07.2019 23:50 15,6 C 14,4 C 14,4 C 66 % 1025,6 hPa 0,0 l/m 0 min 0 min 0 W/m 9,7 km/h (2 Bft) 97,96 %
03.07.2019 23:52 15,6 C 14,4 C 14,4 C 66 % 1025,6 hPa 0,0 l/m 0 min 0 min 0 W/m 6,4 km/h (2 Bft) 97,83 %
03.07.2019 23:54 15,6 C 14,4 C 14,4 C 67 % 1025,6 hPa 0,0 l/m 0 min 0 min 0 W/m 6,4 km/h (2 Bft) 97,87 %
03.07.2019 23:56 15,6 C 14,4 C 13,9 C 67 % 1025,7 hPa 0,0 l/m 0 min 0 min 0 W/m 6,4 km/h (2 Bft) 97,87 %
03.07.2019 23:58 15,6 C 14,4 C 13,9 C 67 % 1025,7 hPa 0,0 l/m 0 min 0 min 0 W/m 6,4 km/h (2 Bft) 97,87 %
_ Min-Zeit 06:10 03:18 05:32 17:14 00:00 - - - - 00:28 06:24
Minimum _ 13,1 C 12,2 C 11,7 C 41 % 1023,0 hPa - - - - 0,0 km/h (0 Bft) 89,13 %
_ Max-Zeit 17:12 12:24 13:22 07:12 23:56 00:00 18:08 00:00 14:14 17:34 00:12
Maximum _ 25,9 C 32,8 C 35,6 C 88 % 1025,7 hPa 0,0 l/m 4 min 0 min 1187 W/m 25,7 km/h
NW (4 Bft)
100,00 %
Durchschnitt _ 18,9 C 19,4 C 19,4 C 63 % 1024,3 hPa #0,0 l/m #7:46 h #0 min. 399 W/m 7,2 km/h (2 Bft) 97,48 %
© 2019 W. Hausmann